<?xml version="1.0" encoding="UTF-8"?>
<gpx version="1.1" creator="https://www.youtrack.es" xsi:schemaLocation="http://www.topografix.com/GPX/1/1 http://www.topografix.com/GPX/1/1/gpx.xsd http://www.garmin.com/xmlschemas/GpxExtensions/v3 http://www.garmin.com/xmlschemas/GpxExtensionsv3.xsd http://www.garmin.com/xmlschemas/TrackPointExtension/v1 http://www.garmin.com/xmlschemas/TrackPointExtensionv1.xsd" xmlns:gpxtpx="http://www.garmin.com/xmlschemas/TrackPointExtension/v1" xmlns:gpxx="http://www.garmin.com/xmlschemas/GpxExtensions/v3" xmlns:xsi="http://www.w3.org/2001/XMLSchema-instance">
  <metadata>
    <link href="https://www.youtrack.es">
      <text>YouTrack.es</text>
    </link>
    <time>2026-05-10T15:52:30Z</time>
  </metadata>
  <trk>
    <src>https://www.youtrack.es</src>
    <link href="https://www.youtrack.es/ruta/13110-hot-race-">
      <text>YouTrack.es</text>
    </link>
    <trkseg>
      <trkpt lat="40.7689700" lon="-8.1412060">
        <ele>399.0</ele>
        <time>2020-05-24T08:11:08Z</time>
      </trkpt>
      <trkpt lat="40.7689350" lon="-8.1412660">
        <ele>398.8</ele>
        <time>2020-05-24T08:11:09Z</time>
      </trkpt>
      <trkpt lat="40.7689430" lon="-8.1412360">
        <ele>399.8</ele>
        <time>2020-05-24T08:11:16Z</time>
      </trkpt>
      <trkpt lat="40.7689950" lon="-8.1412530">
        <ele>400.6</ele>
        <time>2020-05-24T08:11:18Z</time>
      </trkpt>
      <trkpt lat="40.7690410" lon="-8.1412490">
        <ele>400.4</ele>
        <time>2020-05-24T08:11:19Z</time>
      </trkpt>
      <trkpt lat="40.7690800" lon="-8.1412480">
        <ele>401.0</ele>
        <time>2020-05-24T08:11:20Z</time>
      </trkpt>
      <trkpt lat="40.7691070" lon="-8.1412590">
        <ele>401.2</ele>
        <time>2020-05-24T08:11:21Z</time>
      </trkpt>
      <trkpt lat="40.7691280" lon="-8.1412880">
        <ele>401.2</ele>
        <time>2020-05-24T08:11:22Z</time>
      </trkpt>
      <trkpt lat="40.7691710" lon="-8.1413550">
        <ele>401.0</ele>
        <time>2020-05-24T08:11:24Z</time>
      </trkpt>
      <trkpt lat="40.7692190" lon="-8.1414050">
        <ele>400.4</ele>
        <time>2020-05-24T08:11:26Z</time>
      </trkpt>
      <trkpt lat="40.7693390" lon="-8.1415100">
        <ele>401.2</ele>
        <time>2020-05-24T08:11:31Z</time>
      </trkpt>
      <trkpt lat="40.7693910" lon="-8.1415430">
        <ele>401.4</ele>
        <time>2020-05-24T08:11:33Z</time>
      </trkpt>
      <trkpt lat="40.7694340" lon="-8.1415930">
        <ele>401.6</ele>
        <time>2020-05-24T08:11:35Z</time>
      </trkpt>
      <trkpt lat="40.7694510" lon="-8.1416150">
        <ele>401.6</ele>
        <time>2020-05-24T08:11:36Z</time>
      </trkpt>
      <trkpt lat="40.7694710" lon="-8.1416360">
        <ele>401.8</ele>
        <time>2020-05-24T08:11:37Z</time>
      </trkpt>
      <trkpt lat="40.7694960" lon="-8.1416480">
        <ele>402.0</ele>
        <time>2020-05-24T08:11:38Z</time>
      </trkpt>
      <trkpt lat="40.7695460" lon="-8.1416740">
        <ele>402.6</ele>
        <time>2020-05-24T08:11:40Z</time>
      </trkpt>
      <trkpt lat="40.7695670" lon="-8.1416950">
        <ele>402.6</ele>
        <time>2020-05-24T08:11:41Z</time>
      </trkpt>
      <trkpt lat="40.7696400" lon="-8.1417400">
        <ele>403.4</ele>
        <time>2020-05-24T08:11:44Z</time>
      </trkpt>
      <trkpt lat="40.7696880" lon="-8.1417750">
        <ele>403.6</ele>
        <time>2020-05-24T08:11:46Z</time>
      </trkpt>
      <trkpt lat="40.7697140" lon="-8.1417930">
        <ele>403.8</ele>
        <time>2020-05-24T08:11:47Z</time>
      </trkpt>
      <trkpt lat="40.7697950" lon="-8.1418110">
        <ele>404.6</ele>
        <time>2020-05-24T08:11:50Z</time>
      </trkpt>
      <trkpt lat="40.7698210" lon="-8.1418060">
        <ele>404.8</ele>
        <time>2020-05-24T08:11:51Z</time>
      </trkpt>
      <trkpt lat="40.7699190" lon="-8.1418520">
        <ele>405.4</ele>
        <time>2020-05-24T08:11:55Z</time>
      </trkpt>
      <trkpt lat="40.7699430" lon="-8.1418680">
        <ele>405.4</ele>
        <time>2020-05-24T08:11:56Z</time>
      </trkpt>
      <trkpt lat="40.7699900" lon="-8.1418950">
        <ele>406.0</ele>
        <time>2020-05-24T08:11:58Z</time>
      </trkpt>
      <trkpt lat="40.7700960" lon="-8.1419330">
        <ele>407.0</ele>
        <time>2020-05-24T08:12:02Z</time>
      </trkpt>
      <trkpt lat="40.7701800" lon="-8.1419350">
        <ele>407.4</ele>
        <time>2020-05-24T08:12:05Z</time>
      </trkpt>
      <trkpt lat="40.7702330" lon="-8.1419430">
        <ele>407.8</ele>
        <time>2020-05-24T08:12:07Z</time>
      </trkpt>
      <trkpt lat="40.7702590" lon="-8.1419410">
        <ele>407.8</ele>
        <time>2020-05-24T08:12:08Z</time>
      </trkpt>
      <trkpt lat="40.7702860" lon="-8.1419390">
        <ele>408.0</ele>
        <time>2020-05-24T08:12:09Z</time>
      </trkpt>
      <trkpt lat="40.7703150" lon="-8.1419370">
        <ele>408.2</ele>
        <time>2020-05-24T08:12:10Z</time>
      </trkpt>
      <trkpt lat="40.7703930" lon="-8.1419220">
        <ele>409.0</ele>
        <time>2020-05-24T08:12:13Z</time>
      </trkpt>
      <trkpt lat="40.7704180" lon="-8.1419290">
        <ele>409.4</ele>
        <time>2020-05-24T08:12:14Z</time>
      </trkpt>
      <trkpt lat="40.7705980" lon="-8.1419620">
        <ele>410.6</ele>
        <time>2020-05-24T08:12:21Z</time>
      </trkpt>
      <trkpt lat="40.7706270" lon="-8.1419570">
        <ele>410.8</ele>
        <time>2020-05-24T08:12:22Z</time>
      </trkpt>
      <trkpt lat="40.7706550" lon="-8.1419600">
        <ele>410.8</ele>
        <time>2020-05-24T08:12:23Z</time>
      </trkpt>
      <trkpt lat="40.7706840" lon="-8.1419680">
        <ele>411.0</ele>
        <time>2020-05-24T08:12:24Z</time>
      </trkpt>
      <trkpt lat="40.7707130" lon="-8.1419670">
        <ele>411.4</ele>
        <time>2020-05-24T08:12:25Z</time>
      </trkpt>
      <trkpt lat="40.7707390" lon="-8.1419720">
        <ele>411.6</ele>
        <time>2020-05-24T08:12:26Z</time>
      </trkpt>
      <trkpt lat="40.7707670" lon="-8.1419740">
        <ele>411.8</ele>
        <time>2020-05-24T08:12:27Z</time>
      </trkpt>
      <trkpt lat="40.7708140" lon="-8.1419990">
        <ele>412.0</ele>
        <time>2020-05-24T08:12:29Z</time>
      </trkpt>
      <trkpt lat="40.7708990" lon="-8.1420660">
        <ele>412.6</ele>
        <time>2020-05-24T08:12:33Z</time>
      </trkpt>
      <trkpt lat="40.7709190" lon="-8.1420810">
        <ele>412.8</ele>
        <time>2020-05-24T08:12:34Z</time>
      </trkpt>
      <trkpt lat="40.7710350" lon="-8.1421390">
        <ele>414.0</ele>
        <time>2020-05-24T08:12:39Z</time>
      </trkpt>
      <trkpt lat="40.7710560" lon="-8.1421520">
        <ele>414.0</ele>
        <time>2020-05-24T08:12:40Z</time>
      </trkpt>
      <trkpt lat="40.7710780" lon="-8.1421620">
        <ele>414.2</ele>
        <time>2020-05-24T08:12:41Z</time>
      </trkpt>
      <trkpt lat="40.7711190" lon="-8.1421970">
        <ele>414.8</ele>
        <time>2020-05-24T08:12:43Z</time>
      </trkpt>
      <trkpt lat="40.7711400" lon="-8.1422180">
        <ele>415.0</ele>
        <time>2020-05-24T08:12:44Z</time>
      </trkpt>
      <trkpt lat="40.7711860" lon="-8.1422470">
        <ele>415.2</ele>
        <time>2020-05-24T08:12:46Z</time>
      </trkpt>
      <trkpt lat="40.7712630" lon="-8.1422540">
        <ele>416.0</ele>
        <time>2020-05-24T08:12:49Z</time>
      </trkpt>
      <trkpt lat="40.7713700" lon="-8.1422740">
        <ele>416.6</ele>
        <time>2020-05-24T08:12:53Z</time>
      </trkpt>
      <trkpt lat="40.7714270" lon="-8.1422670">
        <ele>417.0</ele>
        <time>2020-05-24T08:12:55Z</time>
      </trkpt>
      <trkpt lat="40.7716090" lon="-8.1422770">
        <ele>418.2</ele>
        <time>2020-05-24T08:13:02Z</time>
      </trkpt>
      <trkpt lat="40.7717980" lon="-8.1422900">
        <ele>418.8</ele>
        <time>2020-05-24T08:13:08Z</time>
      </trkpt>
      <trkpt lat="40.7719640" lon="-8.1422960">
        <ele>419.2</ele>
        <time>2020-05-24T08:13:14Z</time>
      </trkpt>
      <trkpt lat="40.7721660" lon="-8.1422880">
        <ele>419.8</ele>
        <time>2020-05-24T08:13:21Z</time>
      </trkpt>
      <trkpt lat="40.7722800" lon="-8.1422160">
        <ele>420.2</ele>
        <time>2020-05-24T08:13:27Z</time>
      </trkpt>
      <trkpt lat="40.7722980" lon="-8.1421750">
        <ele>420.6</ele>
        <time>2020-05-24T08:13:30Z</time>
      </trkpt>
      <trkpt lat="40.7723390" lon="-8.1421520">
        <ele>420.6</ele>
        <time>2020-05-24T08:13:32Z</time>
      </trkpt>
      <trkpt lat="40.7724600" lon="-8.1419480">
        <ele>421.0</ele>
        <time>2020-05-24T08:13:39Z</time>
      </trkpt>
      <trkpt lat="40.7725070" lon="-8.1418470">
        <ele>421.2</ele>
        <time>2020-05-24T08:13:42Z</time>
      </trkpt>
      <trkpt lat="40.7726570" lon="-8.1416790">
        <ele>421.2</ele>
        <time>2020-05-24T08:13:49Z</time>
      </trkpt>
      <trkpt lat="40.7726870" lon="-8.1416560">
        <ele>421.4</ele>
        <time>2020-05-24T08:13:50Z</time>
      </trkpt>
      <trkpt lat="40.7728000" lon="-8.1414560">
        <ele>421.6</ele>
        <time>2020-05-24T08:13:57Z</time>
      </trkpt>
      <trkpt lat="40.7728310" lon="-8.1413150">
        <ele>422.2</ele>
        <time>2020-05-24T08:14:02Z</time>
      </trkpt>
      <trkpt lat="40.7728690" lon="-8.1412430">
        <ele>422.4</ele>
        <time>2020-05-24T08:14:07Z</time>
      </trkpt>
      <trkpt lat="40.7730120" lon="-8.1410960">
        <ele>423.0</ele>
        <time>2020-05-24T08:14:17Z</time>
      </trkpt>
      <trkpt lat="40.7731510" lon="-8.1409120">
        <ele>422.8</ele>
        <time>2020-05-24T08:14:23Z</time>
      </trkpt>
      <trkpt lat="40.7733310" lon="-8.1406810">
        <ele>422.6</ele>
        <time>2020-05-24T08:14:27Z</time>
      </trkpt>
      <trkpt lat="40.7735410" lon="-8.1406380">
        <ele>422.0</ele>
        <time>2020-05-24T08:14:33Z</time>
      </trkpt>
      <trkpt lat="40.7736950" lon="-8.1406470">
        <ele>421.4</ele>
        <time>2020-05-24T08:14:38Z</time>
      </trkpt>
      <trkpt lat="40.7738780" lon="-8.1406610">
        <ele>421.4</ele>
        <time>2020-05-24T08:14:44Z</time>
      </trkpt>
      <trkpt lat="40.7740670" lon="-8.1406990">
        <ele>421.6</ele>
        <time>2020-05-24T08:14:50Z</time>
      </trkpt>
      <trkpt lat="40.7742720" lon="-8.1407350">
        <ele>422.2</ele>
        <time>2020-05-24T08:14:57Z</time>
      </trkpt>
      <trkpt lat="40.7743680" lon="-8.1407570">
        <ele>422.6</ele>
        <time>2020-05-24T08:15:00Z</time>
      </trkpt>
      <trkpt lat="40.7745780" lon="-8.1407160">
        <ele>423.0</ele>
        <time>2020-05-24T08:15:07Z</time>
      </trkpt>
      <trkpt lat="40.7747400" lon="-8.1405990">
        <ele>423.4</ele>
        <time>2020-05-24T08:15:13Z</time>
      </trkpt>
      <trkpt lat="40.7747950" lon="-8.1405610">
        <ele>423.6</ele>
        <time>2020-05-24T08:15:15Z</time>
      </trkpt>
      <trkpt lat="40.7749800" lon="-8.1404830">
        <ele>424.0</ele>
        <time>2020-05-24T08:15:21Z</time>
      </trkpt>
      <trkpt lat="40.7751650" lon="-8.1404670">
        <ele>424.4</ele>
        <time>2020-05-24T08:15:27Z</time>
      </trkpt>
      <trkpt lat="40.7752480" lon="-8.1404860">
        <ele>424.6</ele>
        <time>2020-05-24T08:15:30Z</time>
      </trkpt>
      <trkpt lat="40.7754120" lon="-8.1406220">
        <ele>424.6</ele>
        <time>2020-05-24T08:15:37Z</time>
      </trkpt>
      <trkpt lat="40.7755750" lon="-8.1407850">
        <ele>424.8</ele>
        <time>2020-05-24T08:15:44Z</time>
      </trkpt>
      <trkpt lat="40.7757370" lon="-8.1409160">
        <ele>425.0</ele>
        <time>2020-05-24T08:15:50Z</time>
      </trkpt>
      <trkpt lat="40.7758540" lon="-8.1410380">
        <ele>425.6</ele>
        <time>2020-05-24T08:15:55Z</time>
      </trkpt>
      <trkpt lat="40.7759680" lon="-8.1411670">
        <ele>425.8</ele>
        <time>2020-05-24T08:16:00Z</time>
      </trkpt>
      <trkpt lat="40.7761460" lon="-8.1412830">
        <ele>426.2</ele>
        <time>2020-05-24T08:16:07Z</time>
      </trkpt>
      <trkpt lat="40.7763410" lon="-8.1413040">
        <ele>426.8</ele>
        <time>2020-05-24T08:16:14Z</time>
      </trkpt>
      <trkpt lat="40.7765250" lon="-8.1412920">
        <ele>428.0</ele>
        <time>2020-05-24T08:16:21Z</time>
      </trkpt>
      <trkpt lat="40.7766810" lon="-8.1412750">
        <ele>429.2</ele>
        <time>2020-05-24T08:16:27Z</time>
      </trkpt>
      <trkpt lat="40.7767820" lon="-8.1412830">
        <ele>430.2</ele>
        <time>2020-05-24T08:16:31Z</time>
      </trkpt>
      <trkpt lat="40.7769210" lon="-8.1413120">
        <ele>431.4</ele>
        <time>2020-05-24T08:16:37Z</time>
      </trkpt>
      <trkpt lat="40.7769980" lon="-8.1413170">
        <ele>432.6</ele>
        <time>2020-05-24T08:16:40Z</time>
      </trkpt>
      <trkpt lat="40.7771670" lon="-8.1413710">
        <ele>434.0</ele>
        <time>2020-05-24T08:16:47Z</time>
      </trkpt>
      <trkpt lat="40.7772130" lon="-8.1413960">
        <ele>435.2</ele>
        <time>2020-05-24T08:16:49Z</time>
      </trkpt>
      <trkpt lat="40.7773470" lon="-8.1415510">
        <ele>436.2</ele>
        <time>2020-05-24T08:16:56Z</time>
      </trkpt>
      <trkpt lat="40.7774750" lon="-8.1416600">
        <ele>437.4</ele>
        <time>2020-05-24T08:17:02Z</time>
      </trkpt>
      <trkpt lat="40.7775860" lon="-8.1417460">
        <ele>438.4</ele>
        <time>2020-05-24T08:17:07Z</time>
      </trkpt>
      <trkpt lat="40.7777440" lon="-8.1418680">
        <ele>439.2</ele>
        <time>2020-05-24T08:17:14Z</time>
      </trkpt>
      <trkpt lat="40.7777670" lon="-8.1418830">
        <ele>439.4</ele>
        <time>2020-05-24T08:17:15Z</time>
      </trkpt>
      <trkpt lat="40.7778670" lon="-8.1419320">
        <ele>440.6</ele>
        <time>2020-05-24T08:17:19Z</time>
      </trkpt>
      <trkpt lat="40.7780580" lon="-8.1420220">
        <ele>441.8</ele>
        <time>2020-05-24T08:17:27Z</time>
      </trkpt>
      <trkpt lat="40.7781560" lon="-8.1420520">
        <ele>442.8</ele>
        <time>2020-05-24T08:17:31Z</time>
      </trkpt>
      <trkpt lat="40.7783550" lon="-8.1421040">
        <ele>443.8</ele>
        <time>2020-05-24T08:17:39Z</time>
      </trkpt>
      <trkpt lat="40.7783780" lon="-8.1421160">
        <ele>444.0</ele>
        <time>2020-05-24T08:17:40Z</time>
      </trkpt>
      <trkpt lat="40.7784450" lon="-8.1421560">
        <ele>445.0</ele>
        <time>2020-05-24T08:17:43Z</time>
      </trkpt>
      <trkpt lat="40.7785660" lon="-8.1422220">
        <ele>446.2</ele>
        <time>2020-05-24T08:17:48Z</time>
      </trkpt>
      <trkpt lat="40.7787320" lon="-8.1423700">
        <ele>447.4</ele>
        <time>2020-05-24T08:17:56Z</time>
      </trkpt>
      <trkpt lat="40.7788610" lon="-8.1424880">
        <ele>448.4</ele>
        <time>2020-05-24T08:18:02Z</time>
      </trkpt>
      <trkpt lat="40.7789820" lon="-8.1426250">
        <ele>448.8</ele>
        <time>2020-05-24T08:18:08Z</time>
      </trkpt>
      <trkpt lat="40.7790010" lon="-8.1426500">
        <ele>449.4</ele>
        <time>2020-05-24T08:18:09Z</time>
      </trkpt>
      <trkpt lat="40.7790770" lon="-8.1427400">
        <ele>450.6</ele>
        <time>2020-05-24T08:18:13Z</time>
      </trkpt>
      <trkpt lat="40.7792140" lon="-8.1428960">
        <ele>451.2</ele>
        <time>2020-05-24T08:18:20Z</time>
      </trkpt>
      <trkpt lat="40.7792710" lon="-8.1429640">
        <ele>451.8</ele>
        <time>2020-05-24T08:18:23Z</time>
      </trkpt>
      <trkpt lat="40.7793450" lon="-8.1430600">
        <ele>452.8</ele>
        <time>2020-05-24T08:18:27Z</time>
      </trkpt>
      <trkpt lat="40.7795010" lon="-8.1432290">
        <ele>453.8</ele>
        <time>2020-05-24T08:18:35Z</time>
      </trkpt>
      <trkpt lat="40.7795200" lon="-8.1432510">
        <ele>454.0</ele>
        <time>2020-05-24T08:18:36Z</time>
      </trkpt>
      <trkpt lat="40.7795770" lon="-8.1433290">
        <ele>455.0</ele>
        <time>2020-05-24T08:18:39Z</time>
      </trkpt>
      <trkpt lat="40.7797110" lon="-8.1434820">
        <ele>456.2</ele>
        <time>2020-05-24T08:18:46Z</time>
      </trkpt>
      <trkpt lat="40.7797860" lon="-8.1436230">
        <ele>457.4</ele>
        <time>2020-05-24T08:18:51Z</time>
      </trkpt>
      <trkpt lat="40.7798670" lon="-8.1438050">
        <ele>458.4</ele>
        <time>2020-05-24T08:18:57Z</time>
      </trkpt>
      <trkpt lat="40.7799640" lon="-8.1439690">
        <ele>459.4</ele>
        <time>2020-05-24T08:19:03Z</time>
      </trkpt>
      <trkpt lat="40.7800470" lon="-8.1441090">
        <ele>460.8</ele>
        <time>2020-05-24T08:19:08Z</time>
      </trkpt>
      <trkpt lat="40.7801200" lon="-8.1442160">
        <ele>461.4</ele>
        <time>2020-05-24T08:19:12Z</time>
      </trkpt>
      <trkpt lat="40.7801970" lon="-8.1443250">
        <ele>461.8</ele>
        <time>2020-05-24T08:19:16Z</time>
      </trkpt>
      <trkpt lat="40.7803420" lon="-8.1444960">
        <ele>462.2</ele>
        <time>2020-05-24T08:19:23Z</time>
      </trkpt>
      <trkpt lat="40.7803890" lon="-8.1445340">
        <ele>462.6</ele>
        <time>2020-05-24T08:19:25Z</time>
      </trkpt>
      <trkpt lat="40.7804130" lon="-8.1445510">
        <ele>463.0</ele>
        <time>2020-05-24T08:19:26Z</time>
      </trkpt>
      <trkpt lat="40.7804610" lon="-8.1445850">
        <ele>463.4</ele>
        <time>2020-05-24T08:19:28Z</time>
      </trkpt>
      <trkpt lat="40.7805070" lon="-8.1446270">
        <ele>464.0</ele>
        <time>2020-05-24T08:19:30Z</time>
      </trkpt>
      <trkpt lat="40.7806710" lon="-8.1447710">
        <ele>465.0</ele>
        <time>2020-05-24T08:19:37Z</time>
      </trkpt>
      <trkpt lat="40.7807120" lon="-8.1448080">
        <ele>465.0</ele>
        <time>2020-05-24T08:19:39Z</time>
      </trkpt>
      <trkpt lat="40.7808300" lon="-8.1448270">
        <ele>465.4</ele>
        <time>2020-05-24T08:19:44Z</time>
      </trkpt>
      <trkpt lat="40.7808610" lon="-8.1447720">
        <ele>465.6</ele>
        <time>2020-05-24T08:19:46Z</time>
      </trkpt>
      <trkpt lat="40.7808530" lon="-8.1446580">
        <ele>466.2</ele>
        <time>2020-05-24T08:19:49Z</time>
      </trkpt>
      <trkpt lat="40.7808160" lon="-8.1444120">
        <ele>467.0</ele>
        <time>2020-05-24T08:19:55Z</time>
      </trkpt>
      <trkpt lat="40.7808100" lon="-8.1441610">
        <ele>466.6</ele>
        <time>2020-05-24T08:20:01Z</time>
      </trkpt>
      <trkpt lat="40.7808410" lon="-8.1439130">
        <ele>465.2</ele>
        <time>2020-05-24T08:20:07Z</time>
      </trkpt>
      <trkpt lat="40.7808470" lon="-8.1438720">
        <ele>465.0</ele>
        <time>2020-05-24T08:20:08Z</time>
      </trkpt>
      <trkpt lat="40.7808710" lon="-8.1437120">
        <ele>463.6</ele>
        <time>2020-05-24T08:20:12Z</time>
      </trkpt>
      <trkpt lat="40.7808920" lon="-8.1435860">
        <ele>462.6</ele>
        <time>2020-05-24T08:20:15Z</time>
      </trkpt>
      <trkpt lat="40.7809120" lon="-8.1434140">
        <ele>461.2</ele>
        <time>2020-05-24T08:20:19Z</time>
      </trkpt>
      <trkpt lat="40.7809380" lon="-8.1432520">
        <ele>460.2</ele>
        <time>2020-05-24T08:20:23Z</time>
      </trkpt>
      <trkpt lat="40.7809640" lon="-8.1431370">
        <ele>459.0</ele>
        <time>2020-05-24T08:20:26Z</time>
      </trkpt>
      <trkpt lat="40.7809760" lon="-8.1429750">
        <ele>457.8</ele>
        <time>2020-05-24T08:20:30Z</time>
      </trkpt>
      <trkpt lat="40.7809910" lon="-8.1427670">
        <ele>456.8</ele>
        <time>2020-05-24T08:20:35Z</time>
      </trkpt>
      <trkpt lat="40.7810020" lon="-8.1425990">
        <ele>455.8</ele>
        <time>2020-05-24T08:20:39Z</time>
      </trkpt>
      <trkpt lat="40.7809690" lon="-8.1423610">
        <ele>454.6</ele>
        <time>2020-05-24T08:20:45Z</time>
      </trkpt>
      <trkpt lat="40.7808560" lon="-8.1421280">
        <ele>454.4</ele>
        <time>2020-05-24T08:20:52Z</time>
      </trkpt>
      <trkpt lat="40.7807670" lon="-8.1419760">
        <ele>454.2</ele>
        <time>2020-05-24T08:20:57Z</time>
      </trkpt>
      <trkpt lat="40.7806600" lon="-8.1417620">
        <ele>453.8</ele>
        <time>2020-05-24T08:21:04Z</time>
      </trkpt>
      <trkpt lat="40.7806400" lon="-8.1417010">
        <ele>453.6</ele>
        <time>2020-05-24T08:21:06Z</time>
      </trkpt>
      <trkpt lat="40.7805360" lon="-8.1414620">
        <ele>453.4</ele>
        <time>2020-05-24T08:21:13Z</time>
      </trkpt>
      <trkpt lat="40.7804530" lon="-8.1412260">
        <ele>453.4</ele>
        <time>2020-05-24T08:21:20Z</time>
      </trkpt>
      <trkpt lat="40.7803740" lon="-8.1410010">
        <ele>453.4</ele>
        <time>2020-05-24T08:21:26Z</time>
      </trkpt>
      <trkpt lat="40.7803240" lon="-8.1407510">
        <ele>453.4</ele>
        <time>2020-05-24T08:21:32Z</time>
      </trkpt>
      <trkpt lat="40.7802880" lon="-8.1405130">
        <ele>453.4</ele>
        <time>2020-05-24T08:21:38Z</time>
      </trkpt>
      <trkpt lat="40.7802580" lon="-8.1402760">
        <ele>453.4</ele>
        <time>2020-05-24T08:21:44Z</time>
      </trkpt>
      <trkpt lat="40.7802110" lon="-8.1400120">
        <ele>453.6</ele>
        <time>2020-05-24T08:21:51Z</time>
      </trkpt>
      <trkpt lat="40.7801640" lon="-8.1397530">
        <ele>454.0</ele>
        <time>2020-05-24T08:21:58Z</time>
      </trkpt>
      <trkpt lat="40.7801380" lon="-8.1396100">
        <ele>454.0</ele>
        <time>2020-05-24T08:22:02Z</time>
      </trkpt>
      <trkpt lat="40.7800830" lon="-8.1393550">
        <ele>454.6</ele>
        <time>2020-05-24T08:22:09Z</time>
      </trkpt>
      <trkpt lat="40.7800350" lon="-8.1391300">
        <ele>454.6</ele>
        <time>2020-05-24T08:22:15Z</time>
      </trkpt>
      <trkpt lat="40.7800300" lon="-8.1390270">
        <ele>455.0</ele>
        <time>2020-05-24T08:22:18Z</time>
      </trkpt>
      <trkpt lat="40.7800660" lon="-8.1390130">
        <ele>455.4</ele>
        <time>2020-05-24T08:22:20Z</time>
      </trkpt>
      <trkpt lat="40.7802290" lon="-8.1391050">
        <ele>455.6</ele>
        <time>2020-05-24T08:22:27Z</time>
      </trkpt>
      <trkpt lat="40.7803370" lon="-8.1391680">
        <ele>456.2</ele>
        <time>2020-05-24T08:22:32Z</time>
      </trkpt>
      <trkpt lat="40.7803900" lon="-8.1391890">
        <ele>456.6</ele>
        <time>2020-05-24T08:22:34Z</time>
      </trkpt>
      <trkpt lat="40.7804380" lon="-8.1392060">
        <ele>456.8</ele>
        <time>2020-05-24T08:22:36Z</time>
      </trkpt>
      <trkpt lat="40.7806250" lon="-8.1392950">
        <ele>457.8</ele>
        <time>2020-05-24T08:22:44Z</time>
      </trkpt>
      <trkpt lat="40.7806450" lon="-8.1393180">
        <ele>458.0</ele>
        <time>2020-05-24T08:22:45Z</time>
      </trkpt>
      <trkpt lat="40.7807130" lon="-8.1394170">
        <ele>459.2</ele>
        <time>2020-05-24T08:22:49Z</time>
      </trkpt>
      <trkpt lat="40.7808010" lon="-8.1395090">
        <ele>459.8</ele>
        <time>2020-05-24T08:22:53Z</time>
      </trkpt>
      <trkpt lat="40.7808470" lon="-8.1395430">
        <ele>460.4</ele>
        <time>2020-05-24T08:22:55Z</time>
      </trkpt>
      <trkpt lat="40.7810150" lon="-8.1395820">
        <ele>461.4</ele>
        <time>2020-05-24T08:23:02Z</time>
      </trkpt>
      <trkpt lat="40.7811090" lon="-8.1395940">
        <ele>462.6</ele>
        <time>2020-05-24T08:23:06Z</time>
      </trkpt>
      <trkpt lat="40.7812080" lon="-8.1395910">
        <ele>463.8</ele>
        <time>2020-05-24T08:23:10Z</time>
      </trkpt>
      <trkpt lat="40.7813130" lon="-8.1395880">
        <ele>465.0</ele>
        <time>2020-05-24T08:23:15Z</time>
      </trkpt>
      <trkpt lat="40.7814030" lon="-8.1396110">
        <ele>466.4</ele>
        <time>2020-05-24T08:23:20Z</time>
      </trkpt>
      <trkpt lat="40.7814710" lon="-8.1396270">
        <ele>467.6</ele>
        <time>2020-05-24T08:23:24Z</time>
      </trkpt>
      <trkpt lat="40.7815370" lon="-8.1396570">
        <ele>468.8</ele>
        <time>2020-05-24T08:23:28Z</time>
      </trkpt>
      <trkpt lat="40.7815890" lon="-8.1396800">
        <ele>470.0</ele>
        <time>2020-05-24T08:23:31Z</time>
      </trkpt>
      <trkpt lat="40.7816360" lon="-8.1397080">
        <ele>471.0</ele>
        <time>2020-05-24T08:23:34Z</time>
      </trkpt>
      <trkpt lat="40.7816990" lon="-8.1397420">
        <ele>472.0</ele>
        <time>2020-05-24T08:23:38Z</time>
      </trkpt>
      <trkpt lat="40.7817720" lon="-8.1397590">
        <ele>473.4</ele>
        <time>2020-05-24T08:23:42Z</time>
      </trkpt>
      <trkpt lat="40.7818530" lon="-8.1397850">
        <ele>474.6</ele>
        <time>2020-05-24T08:23:47Z</time>
      </trkpt>
      <trkpt lat="40.7819110" lon="-8.1398160">
        <ele>476.0</ele>
        <time>2020-05-24T08:23:51Z</time>
      </trkpt>
      <trkpt lat="40.7819660" lon="-8.1398270">
        <ele>477.2</ele>
        <time>2020-05-24T08:23:55Z</time>
      </trkpt>
      <trkpt lat="40.7820090" lon="-8.1398430">
        <ele>478.2</ele>
        <time>2020-05-24T08:23:58Z</time>
      </trkpt>
      <trkpt lat="40.7820600" lon="-8.1398580">
        <ele>479.2</ele>
        <time>2020-05-24T08:24:01Z</time>
      </trkpt>
      <trkpt lat="40.7820950" lon="-8.1398600">
        <ele>480.0</ele>
        <time>2020-05-24T08:24:03Z</time>
      </trkpt>
      <trkpt lat="40.7821110" lon="-8.1398610">
        <ele>480.2</ele>
        <time>2020-05-24T08:24:04Z</time>
      </trkpt>
      <trkpt lat="40.7822000" lon="-8.1398580">
        <ele>481.8</ele>
        <time>2020-05-24T08:24:09Z</time>
      </trkpt>
      <trkpt lat="40.7822610" lon="-8.1398640">
        <ele>482.8</ele>
        <time>2020-05-24T08:24:12Z</time>
      </trkpt>
      <trkpt lat="40.7823400" lon="-8.1398710">
        <ele>484.2</ele>
        <time>2020-05-24T08:24:16Z</time>
      </trkpt>
      <trkpt lat="40.7824010" lon="-8.1398820">
        <ele>485.2</ele>
        <time>2020-05-24T08:24:19Z</time>
      </trkpt>
      <trkpt lat="40.7825200" lon="-8.1399020">
        <ele>486.4</ele>
        <time>2020-05-24T08:24:25Z</time>
      </trkpt>
      <trkpt lat="40.7826060" lon="-8.1399160">
        <ele>487.6</ele>
        <time>2020-05-24T08:24:30Z</time>
      </trkpt>
      <trkpt lat="40.7827170" lon="-8.1398450">
        <ele>488.8</ele>
        <time>2020-05-24T08:24:37Z</time>
      </trkpt>
      <trkpt lat="40.7827810" lon="-8.1397760">
        <ele>490.0</ele>
        <time>2020-05-24T08:24:41Z</time>
      </trkpt>
      <trkpt lat="40.7828530" lon="-8.1396960">
        <ele>491.0</ele>
        <time>2020-05-24T08:24:46Z</time>
      </trkpt>
      <trkpt lat="40.7828910" lon="-8.1396660">
        <ele>491.4</ele>
        <time>2020-05-24T08:24:48Z</time>
      </trkpt>
      <trkpt lat="40.7829090" lon="-8.1396500">
        <ele>491.6</ele>
        <time>2020-05-24T08:24:49Z</time>
      </trkpt>
      <trkpt lat="40.7829290" lon="-8.1396370">
        <ele>491.8</ele>
        <time>2020-05-24T08:24:50Z</time>
      </trkpt>
      <trkpt lat="40.7829680" lon="-8.1396230">
        <ele>492.4</ele>
        <time>2020-05-24T08:24:52Z</time>
      </trkpt>
      <trkpt lat="40.7830760" lon="-8.1396280">
        <ele>493.4</ele>
        <time>2020-05-24T08:24:58Z</time>
      </trkpt>
      <trkpt lat="40.7831060" lon="-8.1396400">
        <ele>494.4</ele>
        <time>2020-05-24T08:25:00Z</time>
      </trkpt>
      <trkpt lat="40.7831510" lon="-8.1396620">
        <ele>495.2</ele>
        <time>2020-05-24T08:25:03Z</time>
      </trkpt>
      <trkpt lat="40.7831790" lon="-8.1396900">
        <ele>495.6</ele>
        <time>2020-05-24T08:25:05Z</time>
      </trkpt>
      <trkpt lat="40.7832340" lon="-8.1397320">
        <ele>497.0</ele>
        <time>2020-05-24T08:25:09Z</time>
      </trkpt>
      <trkpt lat="40.7832760" lon="-8.1397620">
        <ele>498.0</ele>
        <time>2020-05-24T08:25:12Z</time>
      </trkpt>
      <trkpt lat="40.7833250" lon="-8.1397880">
        <ele>499.2</ele>
        <time>2020-05-24T08:25:15Z</time>
      </trkpt>
      <trkpt lat="40.7833870" lon="-8.1398300">
        <ele>500.4</ele>
        <time>2020-05-24T08:25:19Z</time>
      </trkpt>
      <trkpt lat="40.7834530" lon="-8.1398710">
        <ele>501.6</ele>
        <time>2020-05-24T08:25:23Z</time>
      </trkpt>
      <trkpt lat="40.7834950" lon="-8.1398880">
        <ele>502.6</ele>
        <time>2020-05-24T08:25:25Z</time>
      </trkpt>
      <trkpt lat="40.7835840" lon="-8.1399180">
        <ele>503.8</ele>
        <time>2020-05-24T08:25:29Z</time>
      </trkpt>
      <trkpt lat="40.7836950" lon="-8.1399670">
        <ele>504.6</ele>
        <time>2020-05-24T08:25:34Z</time>
      </trkpt>
      <trkpt lat="40.7837830" lon="-8.1400130">
        <ele>504.8</ele>
        <time>2020-05-24T08:25:38Z</time>
      </trkpt>
      <trkpt lat="40.7839670" lon="-8.1400560">
        <ele>505.6</ele>
        <time>2020-05-24T08:25:46Z</time>
      </trkpt>
      <trkpt lat="40.7840090" lon="-8.1400710">
        <ele>505.8</ele>
        <time>2020-05-24T08:25:48Z</time>
      </trkpt>
      <trkpt lat="40.7841980" lon="-8.1401010">
        <ele>506.8</ele>
        <time>2020-05-24T08:25:57Z</time>
      </trkpt>
      <trkpt lat="40.7842170" lon="-8.1401070">
        <ele>507.0</ele>
        <time>2020-05-24T08:25:58Z</time>
      </trkpt>
      <trkpt lat="40.7843020" lon="-8.1401360">
        <ele>508.2</ele>
        <time>2020-05-24T08:26:03Z</time>
      </trkpt>
      <trkpt lat="40.7843330" lon="-8.1401740">
        <ele>509.2</ele>
        <time>2020-05-24T08:26:07Z</time>
      </trkpt>
      <trkpt lat="40.7843690" lon="-8.1402220">
        <ele>510.4</ele>
        <time>2020-05-24T08:26:11Z</time>
      </trkpt>
      <trkpt lat="40.7843930" lon="-8.1402340">
        <ele>511.4</ele>
        <time>2020-05-24T08:26:13Z</time>
      </trkpt>
      <trkpt lat="40.7844450" lon="-8.1402550">
        <ele>512.6</ele>
        <time>2020-05-24T08:26:17Z</time>
      </trkpt>
      <trkpt lat="40.7844940" lon="-8.1403010">
        <ele>514.0</ele>
        <time>2020-05-24T08:26:21Z</time>
      </trkpt>
      <trkpt lat="40.7845370" lon="-8.1403430">
        <ele>515.0</ele>
        <time>2020-05-24T08:26:24Z</time>
      </trkpt>
      <trkpt lat="40.7846120" lon="-8.1404130">
        <ele>516.2</ele>
        <time>2020-05-24T08:26:29Z</time>
      </trkpt>
      <trkpt lat="40.7847140" lon="-8.1404480">
        <ele>517.2</ele>
        <time>2020-05-24T08:26:35Z</time>
      </trkpt>
      <trkpt lat="40.7847710" lon="-8.1404530">
        <ele>518.4</ele>
        <time>2020-05-24T08:26:38Z</time>
      </trkpt>
      <trkpt lat="40.7848330" lon="-8.1404670">
        <ele>519.4</ele>
        <time>2020-05-24T08:26:41Z</time>
      </trkpt>
      <trkpt lat="40.7849020" lon="-8.1404650">
        <ele>520.6</ele>
        <time>2020-05-24T08:26:44Z</time>
      </trkpt>
      <trkpt lat="40.7850510" lon="-8.1404540">
        <ele>521.6</ele>
        <time>2020-05-24T08:26:50Z</time>
      </trkpt>
      <trkpt lat="40.7851390" lon="-8.1404690">
        <ele>521.8</ele>
        <time>2020-05-24T08:26:54Z</time>
      </trkpt>
      <trkpt lat="40.7853340" lon="-8.1405230">
        <ele>522.4</ele>
        <time>2020-05-24T08:27:03Z</time>
      </trkpt>
      <trkpt lat="40.7853860" lon="-8.1405350">
        <ele>522.8</ele>
        <time>2020-05-24T08:27:06Z</time>
      </trkpt>
      <trkpt lat="40.7854490" lon="-8.1405550">
        <ele>523.8</ele>
        <time>2020-05-24T08:27:10Z</time>
      </trkpt>
      <trkpt lat="40.7855020" lon="-8.1405820">
        <ele>524.8</ele>
        <time>2020-05-24T08:27:14Z</time>
      </trkpt>
      <trkpt lat="40.7855170" lon="-8.1405870">
        <ele>525.2</ele>
        <time>2020-05-24T08:27:15Z</time>
      </trkpt>
      <trkpt lat="40.7855620" lon="-8.1405910">
        <ele>526.4</ele>
        <time>2020-05-24T08:27:18Z</time>
      </trkpt>
      <trkpt lat="40.7856140" lon="-8.1406050">
        <ele>527.4</ele>
        <time>2020-05-24T08:27:22Z</time>
      </trkpt>
      <trkpt lat="40.7856570" lon="-8.1406350">
        <ele>528.6</ele>
        <time>2020-05-24T08:27:25Z</time>
      </trkpt>
      <trkpt lat="40.7857140" lon="-8.1406590">
        <ele>529.8</ele>
        <time>2020-05-24T08:27:28Z</time>
      </trkpt>
      <trkpt lat="40.7857910" lon="-8.1406690">
        <ele>531.0</ele>
        <time>2020-05-24T08:27:32Z</time>
      </trkpt>
      <trkpt lat="40.7859400" lon="-8.1406820">
        <ele>532.0</ele>
        <time>2020-05-24T08:27:39Z</time>
      </trkpt>
      <trkpt lat="40.7860310" lon="-8.1407050">
        <ele>532.8</ele>
        <time>2020-05-24T08:27:43Z</time>
      </trkpt>
      <trkpt lat="40.7860620" lon="-8.1406480">
        <ele>535.8</ele>
        <time>2020-05-24T08:28:26Z</time>
      </trkpt>
      <trkpt lat="40.7860670" lon="-8.1406620">
        <ele>535.8</ele>
        <time>2020-05-24T08:28:27Z</time>
      </trkpt>
      <trkpt lat="40.7862300" lon="-8.1407810">
        <ele>535.8</ele>
        <time>2020-05-24T08:28:35Z</time>
      </trkpt>
      <trkpt lat="40.7863970" lon="-8.1408800">
        <ele>536.2</ele>
        <time>2020-05-24T08:28:42Z</time>
      </trkpt>
      <trkpt lat="40.7864390" lon="-8.1409090">
        <ele>536.8</ele>
        <time>2020-05-24T08:28:44Z</time>
      </trkpt>
      <trkpt lat="40.7864640" lon="-8.1409240">
        <ele>537.2</ele>
        <time>2020-05-24T08:28:45Z</time>
      </trkpt>
      <trkpt lat="40.7865120" lon="-8.1409500">
        <ele>537.6</ele>
        <time>2020-05-24T08:28:47Z</time>
      </trkpt>
      <trkpt lat="40.7865360" lon="-8.1409650">
        <ele>537.8</ele>
        <time>2020-05-24T08:28:48Z</time>
      </trkpt>
      <trkpt lat="40.7865630" lon="-8.1409790">
        <ele>538.0</ele>
        <time>2020-05-24T08:28:49Z</time>
      </trkpt>
      <trkpt lat="40.7865880" lon="-8.1409890">
        <ele>538.0</ele>
        <time>2020-05-24T08:28:50Z</time>
      </trkpt>
      <trkpt lat="40.7866150" lon="-8.1410000">
        <ele>538.2</ele>
        <time>2020-05-24T08:28:51Z</time>
      </trkpt>
      <trkpt lat="40.7866460" lon="-8.1410050">
        <ele>538.4</ele>
        <time>2020-05-24T08:28:52Z</time>
      </trkpt>
      <trkpt lat="40.7866740" lon="-8.1410080">
        <ele>538.4</ele>
        <time>2020-05-24T08:28:53Z</time>
      </trkpt>
      <trkpt lat="40.7866980" lon="-8.1410130">
        <ele>538.4</ele>
        <time>2020-05-24T08:28:54Z</time>
      </trkpt>
      <trkpt lat="40.7867230" lon="-8.1410210">
        <ele>538.6</ele>
        <time>2020-05-24T08:28:55Z</time>
      </trkpt>
      <trkpt lat="40.7867470" lon="-8.1410270">
        <ele>538.6</ele>
        <time>2020-05-24T08:28:56Z</time>
      </trkpt>
      <trkpt lat="40.7867720" lon="-8.1410360">
        <ele>538.6</ele>
        <time>2020-05-24T08:28:57Z</time>
      </trkpt>
      <trkpt lat="40.7868460" lon="-8.1410690">
        <ele>538.8</ele>
        <time>2020-05-24T08:29:00Z</time>
      </trkpt>
      <trkpt lat="40.7869100" lon="-8.1411170">
        <ele>539.2</ele>
        <time>2020-05-24T08:29:03Z</time>
      </trkpt>
      <trkpt lat="40.7869990" lon="-8.1412620">
        <ele>539.6</ele>
        <time>2020-05-24T08:29:09Z</time>
      </trkpt>
      <trkpt lat="40.7870420" lon="-8.1413540">
        <ele>540.2</ele>
        <time>2020-05-24T08:29:13Z</time>
      </trkpt>
      <trkpt lat="40.7870700" lon="-8.1414140">
        <ele>540.6</ele>
        <time>2020-05-24T08:29:16Z</time>
      </trkpt>
      <trkpt lat="40.7870810" lon="-8.1414310">
        <ele>540.8</ele>
        <time>2020-05-24T08:29:17Z</time>
      </trkpt>
      <trkpt lat="40.7870960" lon="-8.1414630">
        <ele>541.2</ele>
        <time>2020-05-24T08:29:19Z</time>
      </trkpt>
      <trkpt lat="40.7871040" lon="-8.1414820">
        <ele>541.6</ele>
        <time>2020-05-24T08:29:20Z</time>
      </trkpt>
      <trkpt lat="40.7871140" lon="-8.1414990">
        <ele>541.8</ele>
        <time>2020-05-24T08:29:21Z</time>
      </trkpt>
      <trkpt lat="40.7871340" lon="-8.1415300">
        <ele>542.8</ele>
        <time>2020-05-24T08:29:23Z</time>
      </trkpt>
      <trkpt lat="40.7871440" lon="-8.1415450">
        <ele>543.0</ele>
        <time>2020-05-24T08:29:24Z</time>
      </trkpt>
      <trkpt lat="40.7871630" lon="-8.1415790">
        <ele>543.8</ele>
        <time>2020-05-24T08:29:26Z</time>
      </trkpt>
      <trkpt lat="40.7871860" lon="-8.1416340">
        <ele>544.8</ele>
        <time>2020-05-24T08:29:29Z</time>
      </trkpt>
      <trkpt lat="40.7871940" lon="-8.1416520">
        <ele>545.4</ele>
        <time>2020-05-24T08:29:30Z</time>
      </trkpt>
      <trkpt lat="40.7872280" lon="-8.1417190">
        <ele>546.6</ele>
        <time>2020-05-24T08:29:34Z</time>
      </trkpt>
      <trkpt lat="40.7872530" lon="-8.1417700">
        <ele>547.8</ele>
        <time>2020-05-24T08:29:37Z</time>
      </trkpt>
      <trkpt lat="40.7872770" lon="-8.1418190">
        <ele>549.2</ele>
        <time>2020-05-24T08:29:40Z</time>
      </trkpt>
      <trkpt lat="40.7873100" lon="-8.1418900">
        <ele>550.2</ele>
        <time>2020-05-24T08:29:44Z</time>
      </trkpt>
      <trkpt lat="40.7873360" lon="-8.1419450">
        <ele>551.2</ele>
        <time>2020-05-24T08:29:47Z</time>
      </trkpt>
      <trkpt lat="40.7873810" lon="-8.1420320">
        <ele>552.4</ele>
        <time>2020-05-24T08:29:52Z</time>
      </trkpt>
      <trkpt lat="40.7874020" lon="-8.1420860">
        <ele>553.6</ele>
        <time>2020-05-24T08:29:55Z</time>
      </trkpt>
      <trkpt lat="40.7874670" lon="-8.1421700">
        <ele>554.6</ele>
        <time>2020-05-24T08:30:00Z</time>
      </trkpt>
      <trkpt lat="40.7875170" lon="-8.1422450">
        <ele>555.6</ele>
        <time>2020-05-24T08:30:04Z</time>
      </trkpt>
      <trkpt lat="40.7875240" lon="-8.1422580">
        <ele>555.8</ele>
        <time>2020-05-24T08:30:05Z</time>
      </trkpt>
      <trkpt lat="40.7875380" lon="-8.1422860">
        <ele>556.8</ele>
        <time>2020-05-24T08:30:09Z</time>
      </trkpt>
      <trkpt lat="40.7875640" lon="-8.1422860">
        <ele>557.4</ele>
        <time>2020-05-24T08:30:11Z</time>
      </trkpt>
      <trkpt lat="40.7876300" lon="-8.1422340">
        <ele>558.0</ele>
        <time>2020-05-24T08:30:14Z</time>
      </trkpt>
      <trkpt lat="40.7876570" lon="-8.1422060">
        <ele>558.2</ele>
        <time>2020-05-24T08:30:15Z</time>
      </trkpt>
      <trkpt lat="40.7878250" lon="-8.1420710">
        <ele>558.8</ele>
        <time>2020-05-24T08:30:22Z</time>
      </trkpt>
      <trkpt lat="40.7878450" lon="-8.1420580">
        <ele>559.0</ele>
        <time>2020-05-24T08:30:23Z</time>
      </trkpt>
      <trkpt lat="40.7879080" lon="-8.1420320">
        <ele>560.4</ele>
        <time>2020-05-24T08:30:26Z</time>
      </trkpt>
      <trkpt lat="40.7879710" lon="-8.1420190">
        <ele>561.4</ele>
        <time>2020-05-24T08:30:29Z</time>
      </trkpt>
      <trkpt lat="40.7879900" lon="-8.1420190">
        <ele>561.4</ele>
        <time>2020-05-24T08:30:30Z</time>
      </trkpt>
      <trkpt lat="40.7881610" lon="-8.1419760">
        <ele>562.6</ele>
        <time>2020-05-24T08:30:38Z</time>
      </trkpt>
      <trkpt lat="40.7882260" lon="-8.1419420">
        <ele>563.8</ele>
        <time>2020-05-24T08:30:41Z</time>
      </trkpt>
      <trkpt lat="40.7883260" lon="-8.1419000">
        <ele>565.0</ele>
        <time>2020-05-24T08:30:47Z</time>
      </trkpt>
      <trkpt lat="40.7884090" lon="-8.1418780">
        <ele>566.0</ele>
        <time>2020-05-24T08:30:52Z</time>
      </trkpt>
      <trkpt lat="40.7884920" lon="-8.1418360">
        <ele>567.4</ele>
        <time>2020-05-24T08:30:56Z</time>
      </trkpt>
      <trkpt lat="40.7885880" lon="-8.1417870">
        <ele>568.6</ele>
        <time>2020-05-24T08:31:01Z</time>
      </trkpt>
      <trkpt lat="40.7886200" lon="-8.1417700">
        <ele>569.4</ele>
        <time>2020-05-24T08:31:03Z</time>
      </trkpt>
      <trkpt lat="40.7886390" lon="-8.1417620">
        <ele>569.8</ele>
        <time>2020-05-24T08:31:04Z</time>
      </trkpt>
      <trkpt lat="40.7887690" lon="-8.1416600">
        <ele>570.8</ele>
        <time>2020-05-24T08:31:10Z</time>
      </trkpt>
      <trkpt lat="40.7889480" lon="-8.1416070">
        <ele>571.8</ele>
        <time>2020-05-24T08:31:18Z</time>
      </trkpt>
      <trkpt lat="40.7890680" lon="-8.1415570">
        <ele>571.6</ele>
        <time>2020-05-24T08:31:23Z</time>
      </trkpt>
      <trkpt lat="40.7892000" lon="-8.1414500">
        <ele>570.2</ele>
        <time>2020-05-24T08:31:29Z</time>
      </trkpt>
      <trkpt lat="40.7892140" lon="-8.1414180">
        <ele>569.8</ele>
        <time>2020-05-24T08:31:30Z</time>
      </trkpt>
      <trkpt lat="40.7892330" lon="-8.1412740">
        <ele>568.6</ele>
        <time>2020-05-24T08:31:34Z</time>
      </trkpt>
      <trkpt lat="40.7892220" lon="-8.1411380">
        <ele>567.6</ele>
        <time>2020-05-24T08:31:38Z</time>
      </trkpt>
      <trkpt lat="40.7892470" lon="-8.1408680">
        <ele>566.8</ele>
        <time>2020-05-24T08:31:45Z</time>
      </trkpt>
      <trkpt lat="40.7892430" lon="-8.1407910">
        <ele>566.6</ele>
        <time>2020-05-24T08:31:47Z</time>
      </trkpt>
      <trkpt lat="40.7892430" lon="-8.1406640">
        <ele>565.4</ele>
        <time>2020-05-24T08:31:50Z</time>
      </trkpt>
      <trkpt lat="40.7892850" lon="-8.1404870">
        <ele>564.4</ele>
        <time>2020-05-24T08:31:55Z</time>
      </trkpt>
      <trkpt lat="40.7893600" lon="-8.1404570">
        <ele>564.0</ele>
        <time>2020-05-24T08:31:59Z</time>
      </trkpt>
      <trkpt lat="40.7894140" lon="-8.1404700">
        <ele>564.0</ele>
        <time>2020-05-24T08:32:02Z</time>
      </trkpt>
      <trkpt lat="40.7894180" lon="-8.1404930">
        <ele>564.0</ele>
        <time>2020-05-24T08:32:03Z</time>
      </trkpt>
      <trkpt lat="40.7894120" lon="-8.1405580">
        <ele>564.2</ele>
        <time>2020-05-24T08:32:05Z</time>
      </trkpt>
      <trkpt lat="40.7893770" lon="-8.1407310">
        <ele>564.8</ele>
        <time>2020-05-24T08:32:11Z</time>
      </trkpt>
      <trkpt lat="40.7893660" lon="-8.1408100">
        <ele>565.6</ele>
        <time>2020-05-24T08:32:14Z</time>
      </trkpt>
      <trkpt lat="40.7893800" lon="-8.1409120">
        <ele>566.8</ele>
        <time>2020-05-24T08:32:18Z</time>
      </trkpt>
      <trkpt lat="40.7894030" lon="-8.1409520">
        <ele>567.4</ele>
        <time>2020-05-24T08:32:20Z</time>
      </trkpt>
      <trkpt lat="40.7894180" lon="-8.1409660">
        <ele>567.8</ele>
        <time>2020-05-24T08:32:21Z</time>
      </trkpt>
      <trkpt lat="40.7894850" lon="-8.1409820">
        <ele>569.2</ele>
        <time>2020-05-24T08:32:25Z</time>
      </trkpt>
      <trkpt lat="40.7895580" lon="-8.1409080">
        <ele>570.6</ele>
        <time>2020-05-24T08:32:29Z</time>
      </trkpt>
      <trkpt lat="40.7896300" lon="-8.1408370">
        <ele>571.6</ele>
        <time>2020-05-24T08:32:33Z</time>
      </trkpt>
      <trkpt lat="40.7896850" lon="-8.1407510">
        <ele>572.8</ele>
        <time>2020-05-24T08:32:37Z</time>
      </trkpt>
      <trkpt lat="40.7897040" lon="-8.1407080">
        <ele>573.4</ele>
        <time>2020-05-24T08:32:39Z</time>
      </trkpt>
      <trkpt lat="40.7897280" lon="-8.1406610">
        <ele>574.0</ele>
        <time>2020-05-24T08:32:41Z</time>
      </trkpt>
      <trkpt lat="40.7897680" lon="-8.1405930">
        <ele>575.0</ele>
        <time>2020-05-24T08:32:44Z</time>
      </trkpt>
      <trkpt lat="40.7898030" lon="-8.1405250">
        <ele>575.6</ele>
        <time>2020-05-24T08:32:47Z</time>
      </trkpt>
      <trkpt lat="40.7898160" lon="-8.1404800">
        <ele>578.8</ele>
        <time>2020-05-24T08:33:27Z</time>
      </trkpt>
      <trkpt lat="40.7898190" lon="-8.1404770">
        <ele>578.8</ele>
        <time>2020-05-24T08:33:28Z</time>
      </trkpt>
      <trkpt lat="40.7898520" lon="-8.1404660">
        <ele>578.8</ele>
        <time>2020-05-24T08:33:30Z</time>
      </trkpt>
      <trkpt lat="40.7900260" lon="-8.1403930">
        <ele>578.8</ele>
        <time>2020-05-24T08:33:37Z</time>
      </trkpt>
      <trkpt lat="40.7901220" lon="-8.1403570">
        <ele>579.8</ele>
        <time>2020-05-24T08:33:41Z</time>
      </trkpt>
      <trkpt lat="40.7901680" lon="-8.1403520">
        <ele>580.2</ele>
        <time>2020-05-24T08:33:43Z</time>
      </trkpt>
      <trkpt lat="40.7902350" lon="-8.1403570">
        <ele>580.8</ele>
        <time>2020-05-24T08:33:46Z</time>
      </trkpt>
      <trkpt lat="40.7902750" lon="-8.1403700">
        <ele>581.4</ele>
        <time>2020-05-24T08:33:48Z</time>
      </trkpt>
      <trkpt lat="40.7903130" lon="-8.1403900">
        <ele>582.0</ele>
        <time>2020-05-24T08:33:50Z</time>
      </trkpt>
      <trkpt lat="40.7904340" lon="-8.1404410">
        <ele>583.2</ele>
        <time>2020-05-24T08:33:56Z</time>
      </trkpt>
      <trkpt lat="40.7905150" lon="-8.1404660">
        <ele>584.2</ele>
        <time>2020-05-24T08:34:00Z</time>
      </trkpt>
      <trkpt lat="40.7905810" lon="-8.1404670">
        <ele>585.4</ele>
        <time>2020-05-24T08:34:03Z</time>
      </trkpt>
      <trkpt lat="40.7906800" lon="-8.1404710">
        <ele>586.4</ele>
        <time>2020-05-24T08:34:08Z</time>
      </trkpt>
      <trkpt lat="40.7907380" lon="-8.1404850">
        <ele>587.8</ele>
        <time>2020-05-24T08:34:11Z</time>
      </trkpt>
      <trkpt lat="40.7907990" lon="-8.1404890">
        <ele>588.6</ele>
        <time>2020-05-24T08:34:14Z</time>
      </trkpt>
      <trkpt lat="40.7908170" lon="-8.1404930">
        <ele>589.2</ele>
        <time>2020-05-24T08:34:15Z</time>
      </trkpt>
      <trkpt lat="40.7908840" lon="-8.1405300">
        <ele>590.2</ele>
        <time>2020-05-24T08:34:19Z</time>
      </trkpt>
      <trkpt lat="40.7909370" lon="-8.1405880">
        <ele>591.4</ele>
        <time>2020-05-24T08:34:23Z</time>
      </trkpt>
      <trkpt lat="40.7909550" lon="-8.1406590">
        <ele>592.4</ele>
        <time>2020-05-24T08:34:26Z</time>
      </trkpt>
      <trkpt lat="40.7909550" lon="-8.1407280">
        <ele>593.6</ele>
        <time>2020-05-24T08:34:29Z</time>
      </trkpt>
      <trkpt lat="40.7909090" lon="-8.1408160">
        <ele>594.6</ele>
        <time>2020-05-24T08:34:33Z</time>
      </trkpt>
      <trkpt lat="40.7908360" lon="-8.1408640">
        <ele>595.8</ele>
        <time>2020-05-24T08:34:37Z</time>
      </trkpt>
      <trkpt lat="40.7907660" lon="-8.1408970">
        <ele>596.8</ele>
        <time>2020-05-24T08:34:41Z</time>
      </trkpt>
      <trkpt lat="40.7906930" lon="-8.1409350">
        <ele>598.0</ele>
        <time>2020-05-24T08:34:45Z</time>
      </trkpt>
      <trkpt lat="40.7906220" lon="-8.1409920">
        <ele>599.4</ele>
        <time>2020-05-24T08:34:49Z</time>
      </trkpt>
      <trkpt lat="40.7905510" lon="-8.1410570">
        <ele>601.0</ele>
        <time>2020-05-24T08:34:53Z</time>
      </trkpt>
      <trkpt lat="40.7904860" lon="-8.1411490">
        <ele>602.0</ele>
        <time>2020-05-24T08:34:57Z</time>
      </trkpt>
      <trkpt lat="40.7904450" lon="-8.1412730">
        <ele>603.0</ele>
        <time>2020-05-24T08:35:01Z</time>
      </trkpt>
      <trkpt lat="40.7904320" lon="-8.1414010">
        <ele>604.2</ele>
        <time>2020-05-24T08:35:05Z</time>
      </trkpt>
      <trkpt lat="40.7904600" lon="-8.1415070">
        <ele>605.2</ele>
        <time>2020-05-24T08:35:08Z</time>
      </trkpt>
      <trkpt lat="40.7906080" lon="-8.1416500">
        <ele>606.0</ele>
        <time>2020-05-24T08:35:16Z</time>
      </trkpt>
      <trkpt lat="40.7907130" lon="-8.1416760">
        <ele>606.2</ele>
        <time>2020-05-24T08:35:21Z</time>
      </trkpt>
      <trkpt lat="40.7907940" lon="-8.1416840">
        <ele>607.8</ele>
        <time>2020-05-24T08:35:25Z</time>
      </trkpt>
      <trkpt lat="40.7908500" lon="-8.1416980">
        <ele>609.0</ele>
        <time>2020-05-24T08:35:28Z</time>
      </trkpt>
      <trkpt lat="40.7909770" lon="-8.1417420">
        <ele>610.2</ele>
        <time>2020-05-24T08:35:35Z</time>
      </trkpt>
      <trkpt lat="40.7910340" lon="-8.1417660">
        <ele>611.4</ele>
        <time>2020-05-24T08:35:38Z</time>
      </trkpt>
      <trkpt lat="40.7911350" lon="-8.1417850">
        <ele>612.4</ele>
        <time>2020-05-24T08:35:43Z</time>
      </trkpt>
      <trkpt lat="40.7912210" lon="-8.1417630">
        <ele>613.8</ele>
        <time>2020-05-24T08:35:47Z</time>
      </trkpt>
      <trkpt lat="40.7913380" lon="-8.1416800">
        <ele>615.2</ele>
        <time>2020-05-24T08:35:53Z</time>
      </trkpt>
      <trkpt lat="40.7914090" lon="-8.1416040">
        <ele>616.2</ele>
        <time>2020-05-24T08:35:58Z</time>
      </trkpt>
      <trkpt lat="40.7915080" lon="-8.1415260">
        <ele>617.4</ele>
        <time>2020-05-24T08:36:04Z</time>
      </trkpt>
      <trkpt lat="40.7915870" lon="-8.1415220">
        <ele>618.6</ele>
        <time>2020-05-24T08:36:08Z</time>
      </trkpt>
      <trkpt lat="40.7916960" lon="-8.1415450">
        <ele>619.6</ele>
        <time>2020-05-24T08:36:14Z</time>
      </trkpt>
      <trkpt lat="40.7917770" lon="-8.1415760">
        <ele>620.8</ele>
        <time>2020-05-24T08:36:19Z</time>
      </trkpt>
      <trkpt lat="40.7918590" lon="-8.1416040">
        <ele>622.0</ele>
        <time>2020-05-24T08:36:24Z</time>
      </trkpt>
      <trkpt lat="40.7919080" lon="-8.1416240">
        <ele>623.0</ele>
        <time>2020-05-24T08:36:27Z</time>
      </trkpt>
      <trkpt lat="40.7919540" lon="-8.1416470">
        <ele>624.2</ele>
        <time>2020-05-24T08:36:30Z</time>
      </trkpt>
      <trkpt lat="40.7920510" lon="-8.1416730">
        <ele>625.4</ele>
        <time>2020-05-24T08:36:36Z</time>
      </trkpt>
      <trkpt lat="40.7921300" lon="-8.1416950">
        <ele>626.6</ele>
        <time>2020-05-24T08:36:41Z</time>
      </trkpt>
      <trkpt lat="40.7921960" lon="-8.1417240">
        <ele>627.8</ele>
        <time>2020-05-24T08:36:45Z</time>
      </trkpt>
      <trkpt lat="40.7922860" lon="-8.1417520">
        <ele>628.8</ele>
        <time>2020-05-24T08:36:50Z</time>
      </trkpt>
      <trkpt lat="40.7924280" lon="-8.1418080">
        <ele>630.0</ele>
        <time>2020-05-24T08:36:58Z</time>
      </trkpt>
      <trkpt lat="40.7925440" lon="-8.1418640">
        <ele>631.2</ele>
        <time>2020-05-24T08:37:05Z</time>
      </trkpt>
      <trkpt lat="40.7926160" lon="-8.1419940">
        <ele>632.4</ele>
        <time>2020-05-24T08:37:13Z</time>
      </trkpt>
      <trkpt lat="40.7926200" lon="-8.1420340">
        <ele>633.0</ele>
        <time>2020-05-24T08:37:15Z</time>
      </trkpt>
      <trkpt lat="40.7926090" lon="-8.1420800">
        <ele>633.4</ele>
        <time>2020-05-24T08:37:17Z</time>
      </trkpt>
      <trkpt lat="40.7925780" lon="-8.1421670">
        <ele>634.4</ele>
        <time>2020-05-24T08:37:21Z</time>
      </trkpt>
      <trkpt lat="40.7925370" lon="-8.1422740">
        <ele>635.6</ele>
        <time>2020-05-24T08:37:27Z</time>
      </trkpt>
      <trkpt lat="40.7925020" lon="-8.1423750">
        <ele>636.8</ele>
        <time>2020-05-24T08:37:32Z</time>
      </trkpt>
      <trkpt lat="40.7924690" lon="-8.1424440">
        <ele>637.8</ele>
        <time>2020-05-24T08:37:36Z</time>
      </trkpt>
      <trkpt lat="40.7924210" lon="-8.1425350">
        <ele>639.0</ele>
        <time>2020-05-24T08:37:41Z</time>
      </trkpt>
      <trkpt lat="40.7923900" lon="-8.1426310">
        <ele>640.0</ele>
        <time>2020-05-24T08:37:45Z</time>
      </trkpt>
      <trkpt lat="40.7923500" lon="-8.1427340">
        <ele>641.0</ele>
        <time>2020-05-24T08:37:49Z</time>
      </trkpt>
      <trkpt lat="40.7923390" lon="-8.1427570">
        <ele>641.2</ele>
        <time>2020-05-24T08:37:50Z</time>
      </trkpt>
      <trkpt lat="40.7922970" lon="-8.1428450">
        <ele>642.2</ele>
        <time>2020-05-24T08:37:54Z</time>
      </trkpt>
      <trkpt lat="40.7922580" lon="-8.1429660">
        <ele>643.2</ele>
        <time>2020-05-24T08:37:59Z</time>
      </trkpt>
      <trkpt lat="40.7922500" lon="-8.1431510">
        <ele>644.2</ele>
        <time>2020-05-24T08:38:06Z</time>
      </trkpt>
      <trkpt lat="40.7922850" lon="-8.1431740">
        <ele>648.0</ele>
        <time>2020-05-24T08:38:49Z</time>
      </trkpt>
      <trkpt lat="40.7922930" lon="-8.1432000">
        <ele>648.0</ele>
        <time>2020-05-24T08:38:51Z</time>
      </trkpt>
      <trkpt lat="40.7923010" lon="-8.1432220">
        <ele>648.0</ele>
        <time>2020-05-24T08:38:52Z</time>
      </trkpt>
      <trkpt lat="40.7923800" lon="-8.1434400">
        <ele>648.4</ele>
        <time>2020-05-24T08:38:59Z</time>
      </trkpt>
      <trkpt lat="40.7924260" lon="-8.1435400">
        <ele>649.0</ele>
        <time>2020-05-24T08:39:02Z</time>
      </trkpt>
      <trkpt lat="40.7925010" lon="-8.1437220">
        <ele>650.2</ele>
        <time>2020-05-24T08:39:08Z</time>
      </trkpt>
      <trkpt lat="40.7925200" lon="-8.1438540">
        <ele>651.2</ele>
        <time>2020-05-24T08:39:12Z</time>
      </trkpt>
      <trkpt lat="40.7925210" lon="-8.1439490">
        <ele>652.2</ele>
        <time>2020-05-24T08:39:15Z</time>
      </trkpt>
      <trkpt lat="40.7925170" lon="-8.1440170">
        <ele>653.0</ele>
        <time>2020-05-24T08:39:17Z</time>
      </trkpt>
      <trkpt lat="40.7925110" lon="-8.1440890">
        <ele>653.2</ele>
        <time>2020-05-24T08:39:19Z</time>
      </trkpt>
      <trkpt lat="40.7924900" lon="-8.1443430">
        <ele>653.8</ele>
        <time>2020-05-24T08:39:26Z</time>
      </trkpt>
      <trkpt lat="40.7924920" lon="-8.1445720">
        <ele>654.6</ele>
        <time>2020-05-24T08:39:33Z</time>
      </trkpt>
      <trkpt lat="40.7924970" lon="-8.1446370">
        <ele>654.8</ele>
        <time>2020-05-24T08:39:35Z</time>
      </trkpt>
      <trkpt lat="40.7925030" lon="-8.1448020">
        <ele>655.2</ele>
        <time>2020-05-24T08:39:40Z</time>
      </trkpt>
      <trkpt lat="40.7924950" lon="-8.1449650">
        <ele>655.6</ele>
        <time>2020-05-24T08:39:45Z</time>
      </trkpt>
      <trkpt lat="40.7924910" lon="-8.1449970">
        <ele>655.6</ele>
        <time>2020-05-24T08:39:46Z</time>
      </trkpt>
      <trkpt lat="40.7924540" lon="-8.1451770">
        <ele>656.8</ele>
        <time>2020-05-24T08:39:52Z</time>
      </trkpt>
      <trkpt lat="40.7923540" lon="-8.1453600">
        <ele>657.8</ele>
        <time>2020-05-24T08:39:59Z</time>
      </trkpt>
      <trkpt lat="40.7922690" lon="-8.1455030">
        <ele>658.2</ele>
        <time>2020-05-24T08:40:05Z</time>
      </trkpt>
      <trkpt lat="40.7922760" lon="-8.1455220">
        <ele>658.4</ele>
        <time>2020-05-24T08:41:18Z</time>
      </trkpt>
      <trkpt lat="40.7922670" lon="-8.1455320">
        <ele>657.8</ele>
        <time>2020-05-24T08:41:19Z</time>
      </trkpt>
      <trkpt lat="40.7921130" lon="-8.1457200">
        <ele>658.2</ele>
        <time>2020-05-24T08:41:26Z</time>
      </trkpt>
      <trkpt lat="40.7920230" lon="-8.1457710">
        <ele>658.2</ele>
        <time>2020-05-24T08:41:29Z</time>
      </trkpt>
      <trkpt lat="40.7918970" lon="-8.1458140">
        <ele>657.4</ele>
        <time>2020-05-24T08:41:33Z</time>
      </trkpt>
      <trkpt lat="40.7918640" lon="-8.1458210">
        <ele>657.2</ele>
        <time>2020-05-24T08:41:34Z</time>
      </trkpt>
      <trkpt lat="40.7918300" lon="-8.1458280">
        <ele>657.0</ele>
        <time>2020-05-24T08:41:35Z</time>
      </trkpt>
      <trkpt lat="40.7917980" lon="-8.1458360">
        <ele>657.0</ele>
        <time>2020-05-24T08:41:36Z</time>
      </trkpt>
      <trkpt lat="40.7917340" lon="-8.1458550">
        <ele>656.6</ele>
        <time>2020-05-24T08:41:38Z</time>
      </trkpt>
      <trkpt lat="40.7917020" lon="-8.1458660">
        <ele>656.4</ele>
        <time>2020-05-24T08:41:39Z</time>
      </trkpt>
      <trkpt lat="40.7916710" lon="-8.1458810">
        <ele>656.4</ele>
        <time>2020-05-24T08:41:40Z</time>
      </trkpt>
      <trkpt lat="40.7916400" lon="-8.1458960">
        <ele>656.4</ele>
        <time>2020-05-24T08:41:41Z</time>
      </trkpt>
      <trkpt lat="40.7915810" lon="-8.1459230">
        <ele>656.2</ele>
        <time>2020-05-24T08:41:43Z</time>
      </trkpt>
      <trkpt lat="40.7914010" lon="-8.1459970">
        <ele>655.8</ele>
        <time>2020-05-24T08:41:49Z</time>
      </trkpt>
      <trkpt lat="40.7913100" lon="-8.1460260">
        <ele>655.8</ele>
        <time>2020-05-24T08:41:52Z</time>
      </trkpt>
      <trkpt lat="40.7912800" lon="-8.1460350">
        <ele>655.6</ele>
        <time>2020-05-24T08:41:53Z</time>
      </trkpt>
      <trkpt lat="40.7910890" lon="-8.1461330">
        <ele>655.6</ele>
        <time>2020-05-24T08:42:00Z</time>
      </trkpt>
      <trkpt lat="40.7909960" lon="-8.1462760">
        <ele>656.2</ele>
        <time>2020-05-24T08:42:05Z</time>
      </trkpt>
      <trkpt lat="40.7908650" lon="-8.1464560">
        <ele>657.2</ele>
        <time>2020-05-24T08:42:12Z</time>
      </trkpt>
      <trkpt lat="40.7907380" lon="-8.1466530">
        <ele>657.6</ele>
        <time>2020-05-24T08:42:20Z</time>
      </trkpt>
      <trkpt lat="40.7906940" lon="-8.1467760">
        <ele>658.8</ele>
        <time>2020-05-24T08:42:24Z</time>
      </trkpt>
      <trkpt lat="40.7906380" lon="-8.1469640">
        <ele>659.8</ele>
        <time>2020-05-24T08:42:30Z</time>
      </trkpt>
      <trkpt lat="40.7906180" lon="-8.1470250">
        <ele>659.8</ele>
        <time>2020-05-24T08:42:32Z</time>
      </trkpt>
      <trkpt lat="40.7905540" lon="-8.1472590">
        <ele>660.0</ele>
        <time>2020-05-24T08:42:39Z</time>
      </trkpt>
      <trkpt lat="40.7905380" lon="-8.1473600">
        <ele>660.4</ele>
        <time>2020-05-24T08:42:42Z</time>
      </trkpt>
      <trkpt lat="40.7905400" lon="-8.1474650">
        <ele>661.0</ele>
        <time>2020-05-24T08:42:45Z</time>
      </trkpt>
      <trkpt lat="40.7905570" lon="-8.1477220">
        <ele>661.8</ele>
        <time>2020-05-24T08:42:52Z</time>
      </trkpt>
      <trkpt lat="40.7905860" lon="-8.1479970">
        <ele>661.8</ele>
        <time>2020-05-24T08:42:59Z</time>
      </trkpt>
      <trkpt lat="40.7906750" lon="-8.1482350">
        <ele>660.4</ele>
        <time>2020-05-24T08:43:06Z</time>
      </trkpt>
      <trkpt lat="40.7906940" lon="-8.1483070">
        <ele>660.0</ele>
        <time>2020-05-24T08:43:08Z</time>
      </trkpt>
      <trkpt lat="40.7906770" lon="-8.1484800">
        <ele>658.8</ele>
        <time>2020-05-24T08:43:13Z</time>
      </trkpt>
      <trkpt lat="40.7906280" lon="-8.1485550">
        <ele>657.8</ele>
        <time>2020-05-24T08:43:16Z</time>
      </trkpt>
      <trkpt lat="40.7904610" lon="-8.1486560">
        <ele>657.2</ele>
        <time>2020-05-24T08:43:23Z</time>
      </trkpt>
      <trkpt lat="40.7903480" lon="-8.1487450">
        <ele>656.8</ele>
        <time>2020-05-24T08:43:28Z</time>
      </trkpt>
      <trkpt lat="40.7901780" lon="-8.1488560">
        <ele>656.6</ele>
        <time>2020-05-24T08:43:35Z</time>
      </trkpt>
      <trkpt lat="40.7900010" lon="-8.1489440">
        <ele>656.0</ele>
        <time>2020-05-24T08:43:42Z</time>
      </trkpt>
      <trkpt lat="40.7898750" lon="-8.1490210">
        <ele>655.6</ele>
        <time>2020-05-24T08:43:47Z</time>
      </trkpt>
      <trkpt lat="40.7897570" lon="-8.1491400">
        <ele>654.6</ele>
        <time>2020-05-24T08:43:52Z</time>
      </trkpt>
      <trkpt lat="40.7896420" lon="-8.1493580">
        <ele>654.0</ele>
        <time>2020-05-24T08:43:59Z</time>
      </trkpt>
      <trkpt lat="40.7895990" lon="-8.1494910">
        <ele>653.6</ele>
        <time>2020-05-24T08:44:03Z</time>
      </trkpt>
      <trkpt lat="40.7895670" lon="-8.1497390">
        <ele>653.6</ele>
        <time>2020-05-24T08:44:10Z</time>
      </trkpt>
      <trkpt lat="40.7895670" lon="-8.1499180">
        <ele>654.2</ele>
        <time>2020-05-24T08:44:15Z</time>
      </trkpt>
      <trkpt lat="40.7896010" lon="-8.1499340">
        <ele>654.4</ele>
        <time>2020-05-24T08:46:38Z</time>
      </trkpt>
      <trkpt lat="40.7896140" lon="-8.1499390">
        <ele>654.4</ele>
        <time>2020-05-24T08:46:39Z</time>
      </trkpt>
      <trkpt lat="40.7896270" lon="-8.1499610">
        <ele>654.4</ele>
        <time>2020-05-24T08:46:40Z</time>
      </trkpt>
      <trkpt lat="40.7896680" lon="-8.1501720">
        <ele>654.4</ele>
        <time>2020-05-24T08:46:46Z</time>
      </trkpt>
      <trkpt lat="40.7896720" lon="-8.1502160">
        <ele>654.4</ele>
        <time>2020-05-24T08:46:47Z</time>
      </trkpt>
      <trkpt lat="40.7896710" lon="-8.1504360">
        <ele>654.4</ele>
        <time>2020-05-24T08:46:52Z</time>
      </trkpt>
      <trkpt lat="40.7896820" lon="-8.1506530">
        <ele>652.4</ele>
        <time>2020-05-24T08:46:57Z</time>
      </trkpt>
      <trkpt lat="40.7896800" lon="-8.1507870">
        <ele>651.4</ele>
        <time>2020-05-24T08:47:00Z</time>
      </trkpt>
      <trkpt lat="40.7896780" lon="-8.1508320">
        <ele>651.2</ele>
        <time>2020-05-24T08:47:01Z</time>
      </trkpt>
      <trkpt lat="40.7896670" lon="-8.1509610">
        <ele>650.0</ele>
        <time>2020-05-24T08:47:04Z</time>
      </trkpt>
      <trkpt lat="40.7896570" lon="-8.1510910">
        <ele>649.0</ele>
        <time>2020-05-24T08:47:07Z</time>
      </trkpt>
      <trkpt lat="40.7896180" lon="-8.1512680">
        <ele>648.0</ele>
        <time>2020-05-24T08:47:11Z</time>
      </trkpt>
      <trkpt lat="40.7895600" lon="-8.1514570">
        <ele>647.0</ele>
        <time>2020-05-24T08:47:16Z</time>
      </trkpt>
      <trkpt lat="40.7894790" lon="-8.1516860">
        <ele>646.4</ele>
        <time>2020-05-24T08:47:22Z</time>
      </trkpt>
      <trkpt lat="40.7894050" lon="-8.1519110">
        <ele>646.6</ele>
        <time>2020-05-24T08:47:29Z</time>
      </trkpt>
      <trkpt lat="40.7894090" lon="-8.1519260">
        <ele>646.6</ele>
        <time>2020-05-24T08:47:34Z</time>
      </trkpt>
      <trkpt lat="40.7894110" lon="-8.1519250">
        <ele>646.6</ele>
        <time>2020-05-24T08:47:36Z</time>
      </trkpt>
      <trkpt lat="40.7894140" lon="-8.1519270">
        <ele>646.6</ele>
        <time>2020-05-24T08:47:39Z</time>
      </trkpt>
      <trkpt lat="40.7894250" lon="-8.1519030">
        <ele>646.8</ele>
        <time>2020-05-24T08:48:17Z</time>
      </trkpt>
      <trkpt lat="40.7894230" lon="-8.1519130">
        <ele>646.8</ele>
        <time>2020-05-24T08:48:18Z</time>
      </trkpt>
      <trkpt lat="40.7893560" lon="-8.1521660">
        <ele>646.6</ele>
        <time>2020-05-24T08:48:25Z</time>
      </trkpt>
      <trkpt lat="40.7893390" lon="-8.1522890">
        <ele>646.4</ele>
        <time>2020-05-24T08:48:28Z</time>
      </trkpt>
      <trkpt lat="40.7893220" lon="-8.1523280">
        <ele>645.8</ele>
        <time>2020-05-24T08:48:29Z</time>
      </trkpt>
      <trkpt lat="40.7892000" lon="-8.1525420">
        <ele>644.8</ele>
        <time>2020-05-24T08:48:35Z</time>
      </trkpt>
      <trkpt lat="40.7891790" lon="-8.1525790">
        <ele>644.0</ele>
        <time>2020-05-24T08:48:36Z</time>
      </trkpt>
      <trkpt lat="40.7891570" lon="-8.1526140">
        <ele>643.6</ele>
        <time>2020-05-24T08:48:37Z</time>
      </trkpt>
      <trkpt lat="40.7890900" lon="-8.1527200">
        <ele>642.4</ele>
        <time>2020-05-24T08:48:40Z</time>
      </trkpt>
      <trkpt lat="40.7890320" lon="-8.1528170">
        <ele>641.4</ele>
        <time>2020-05-24T08:48:43Z</time>
      </trkpt>
      <trkpt lat="40.7890110" lon="-8.1528510">
        <ele>640.8</ele>
        <time>2020-05-24T08:48:44Z</time>
      </trkpt>
      <trkpt lat="40.7889690" lon="-8.1529150">
        <ele>640.2</ele>
        <time>2020-05-24T08:48:46Z</time>
      </trkpt>
      <trkpt lat="40.7888670" lon="-8.1530370">
        <ele>639.0</ele>
        <time>2020-05-24T08:48:50Z</time>
      </trkpt>
      <trkpt lat="40.7887610" lon="-8.1531490">
        <ele>637.8</ele>
        <time>2020-05-24T08:48:54Z</time>
      </trkpt>
      <trkpt lat="40.7886800" lon="-8.1532260">
        <ele>636.6</ele>
        <time>2020-05-24T08:48:57Z</time>
      </trkpt>
      <trkpt lat="40.7885650" lon="-8.1533160">
        <ele>635.2</ele>
        <time>2020-05-24T08:49:01Z</time>
      </trkpt>
      <trkpt lat="40.7884730" lon="-8.1533630">
        <ele>634.0</ele>
        <time>2020-05-24T08:49:04Z</time>
      </trkpt>
      <trkpt lat="40.7884100" lon="-8.1533830">
        <ele>632.6</ele>
        <time>2020-05-24T08:49:06Z</time>
      </trkpt>
      <trkpt lat="40.7883460" lon="-8.1533930">
        <ele>631.4</ele>
        <time>2020-05-24T08:49:08Z</time>
      </trkpt>
      <trkpt lat="40.7882490" lon="-8.1533920">
        <ele>630.4</ele>
        <time>2020-05-24T08:49:11Z</time>
      </trkpt>
      <trkpt lat="40.7881570" lon="-8.1533640">
        <ele>629.0</ele>
        <time>2020-05-24T08:49:14Z</time>
      </trkpt>
      <trkpt lat="40.7880620" lon="-8.1533280">
        <ele>627.6</ele>
        <time>2020-05-24T08:49:17Z</time>
      </trkpt>
      <trkpt lat="40.7879940" lon="-8.1533130">
        <ele>626.4</ele>
        <time>2020-05-24T08:49:19Z</time>
      </trkpt>
      <trkpt lat="40.7879270" lon="-8.1533050">
        <ele>625.2</ele>
        <time>2020-05-24T08:49:21Z</time>
      </trkpt>
      <trkpt lat="40.7878600" lon="-8.1533020">
        <ele>624.0</ele>
        <time>2020-05-24T08:49:23Z</time>
      </trkpt>
      <trkpt lat="40.7877900" lon="-8.1533000">
        <ele>622.8</ele>
        <time>2020-05-24T08:49:25Z</time>
      </trkpt>
      <trkpt lat="40.7877260" lon="-8.1533120">
        <ele>621.6</ele>
        <time>2020-05-24T08:49:27Z</time>
      </trkpt>
      <trkpt lat="40.7876570" lon="-8.1533290">
        <ele>620.2</ele>
        <time>2020-05-24T08:49:29Z</time>
      </trkpt>
      <trkpt lat="40.7875910" lon="-8.1533580">
        <ele>618.6</ele>
        <time>2020-05-24T08:49:31Z</time>
      </trkpt>
      <trkpt lat="40.7875590" lon="-8.1533750">
        <ele>617.6</ele>
        <time>2020-05-24T08:49:32Z</time>
      </trkpt>
      <trkpt lat="40.7874640" lon="-8.1534460">
        <ele>616.4</ele>
        <time>2020-05-24T08:49:35Z</time>
      </trkpt>
      <trkpt lat="40.7874080" lon="-8.1535010">
        <ele>615.2</ele>
        <time>2020-05-24T08:49:37Z</time>
      </trkpt>
      <trkpt lat="40.7873570" lon="-8.1535660">
        <ele>614.2</ele>
        <time>2020-05-24T08:49:39Z</time>
      </trkpt>
      <trkpt lat="40.7873120" lon="-8.1536380">
        <ele>612.8</ele>
        <time>2020-05-24T08:49:41Z</time>
      </trkpt>
      <trkpt lat="40.7872660" lon="-8.1537090">
        <ele>611.8</ele>
        <time>2020-05-24T08:49:43Z</time>
      </trkpt>
      <trkpt lat="40.7871940" lon="-8.1538100">
        <ele>610.6</ele>
        <time>2020-05-24T08:49:46Z</time>
      </trkpt>
      <trkpt lat="40.7871450" lon="-8.1538810">
        <ele>609.2</ele>
        <time>2020-05-24T08:49:48Z</time>
      </trkpt>
      <trkpt lat="40.7871000" lon="-8.1539490">
        <ele>608.2</ele>
        <time>2020-05-24T08:49:50Z</time>
      </trkpt>
      <trkpt lat="40.7870570" lon="-8.1540170">
        <ele>607.0</ele>
        <time>2020-05-24T08:49:52Z</time>
      </trkpt>
      <trkpt lat="40.7869950" lon="-8.1541230">
        <ele>605.8</ele>
        <time>2020-05-24T08:49:55Z</time>
      </trkpt>
      <trkpt lat="40.7869140" lon="-8.1542620">
        <ele>604.4</ele>
        <time>2020-05-24T08:49:59Z</time>
      </trkpt>
      <trkpt lat="40.7868760" lon="-8.1543290">
        <ele>603.0</ele>
        <time>2020-05-24T08:50:01Z</time>
      </trkpt>
      <trkpt lat="40.7868140" lon="-8.1544270">
        <ele>601.6</ele>
        <time>2020-05-24T08:50:04Z</time>
      </trkpt>
      <trkpt lat="40.7867500" lon="-8.1545320">
        <ele>600.4</ele>
        <time>2020-05-24T08:50:07Z</time>
      </trkpt>
      <trkpt lat="40.7867030" lon="-8.1546000">
        <ele>599.2</ele>
        <time>2020-05-24T08:50:09Z</time>
      </trkpt>
      <trkpt lat="40.7866070" lon="-8.1547280">
        <ele>597.6</ele>
        <time>2020-05-24T08:50:13Z</time>
      </trkpt>
      <trkpt lat="40.7865590" lon="-8.1547870">
        <ele>596.6</ele>
        <time>2020-05-24T08:50:15Z</time>
      </trkpt>
      <trkpt lat="40.7865090" lon="-8.1548490">
        <ele>596.0</ele>
        <time>2020-05-24T08:50:17Z</time>
      </trkpt>
      <trkpt lat="40.7864600" lon="-8.1549030">
        <ele>595.2</ele>
        <time>2020-05-24T08:50:19Z</time>
      </trkpt>
      <trkpt lat="40.7863290" lon="-8.1550320">
        <ele>593.8</ele>
        <time>2020-05-24T08:50:24Z</time>
      </trkpt>
      <trkpt lat="40.7862240" lon="-8.1551410">
        <ele>592.6</ele>
        <time>2020-05-24T08:50:28Z</time>
      </trkpt>
      <trkpt lat="40.7861430" lon="-8.1552250">
        <ele>591.6</ele>
        <time>2020-05-24T08:50:31Z</time>
      </trkpt>
      <trkpt lat="40.7860620" lon="-8.1553110">
        <ele>590.4</ele>
        <time>2020-05-24T08:50:34Z</time>
      </trkpt>
      <trkpt lat="40.7859130" lon="-8.1554170">
        <ele>589.2</ele>
        <time>2020-05-24T08:50:39Z</time>
      </trkpt>
      <trkpt lat="40.7857960" lon="-8.1554830">
        <ele>588.0</ele>
        <time>2020-05-24T08:50:43Z</time>
      </trkpt>
      <trkpt lat="40.7857080" lon="-8.1555290">
        <ele>587.0</ele>
        <time>2020-05-24T08:50:46Z</time>
      </trkpt>
      <trkpt lat="40.7856190" lon="-8.1555900">
        <ele>585.8</ele>
        <time>2020-05-24T08:50:49Z</time>
      </trkpt>
      <trkpt lat="40.7855010" lon="-8.1556620">
        <ele>584.8</ele>
        <time>2020-05-24T08:50:53Z</time>
      </trkpt>
      <trkpt lat="40.7854080" lon="-8.1557140">
        <ele>583.8</ele>
        <time>2020-05-24T08:50:56Z</time>
      </trkpt>
      <trkpt lat="40.7853150" lon="-8.1557630">
        <ele>582.6</ele>
        <time>2020-05-24T08:50:59Z</time>
      </trkpt>
      <trkpt lat="40.7852300" lon="-8.1558050">
        <ele>581.6</ele>
        <time>2020-05-24T08:51:02Z</time>
      </trkpt>
      <trkpt lat="40.7852000" lon="-8.1558190">
        <ele>581.4</ele>
        <time>2020-05-24T08:51:03Z</time>
      </trkpt>
      <trkpt lat="40.7850770" lon="-8.1558630">
        <ele>580.2</ele>
        <time>2020-05-24T08:51:07Z</time>
      </trkpt>
      <trkpt lat="40.7850150" lon="-8.1558780">
        <ele>579.0</ele>
        <time>2020-05-24T08:51:09Z</time>
      </trkpt>
      <trkpt lat="40.7849210" lon="-8.1558780">
        <ele>578.0</ele>
        <time>2020-05-24T08:51:12Z</time>
      </trkpt>
      <trkpt lat="40.7847930" lon="-8.1558480">
        <ele>576.6</ele>
        <time>2020-05-24T08:51:16Z</time>
      </trkpt>
      <trkpt lat="40.7846720" lon="-8.1558090">
        <ele>575.4</ele>
        <time>2020-05-24T08:51:20Z</time>
      </trkpt>
      <trkpt lat="40.7845790" lon="-8.1557830">
        <ele>574.4</ele>
        <time>2020-05-24T08:51:23Z</time>
      </trkpt>
      <trkpt lat="40.7844860" lon="-8.1557520">
        <ele>573.2</ele>
        <time>2020-05-24T08:51:26Z</time>
      </trkpt>
      <trkpt lat="40.7843340" lon="-8.1556690">
        <ele>572.0</ele>
        <time>2020-05-24T08:51:31Z</time>
      </trkpt>
      <trkpt lat="40.7842420" lon="-8.1556220">
        <ele>571.0</ele>
        <time>2020-05-24T08:51:34Z</time>
      </trkpt>
      <trkpt lat="40.7841340" lon="-8.1555210">
        <ele>569.8</ele>
        <time>2020-05-24T08:51:38Z</time>
      </trkpt>
      <trkpt lat="40.7840830" lon="-8.1554530">
        <ele>568.6</ele>
        <time>2020-05-24T08:51:40Z</time>
      </trkpt>
      <trkpt lat="40.7840200" lon="-8.1553600">
        <ele>567.4</ele>
        <time>2020-05-24T08:51:43Z</time>
      </trkpt>
      <trkpt lat="40.7839400" lon="-8.1552240">
        <ele>566.0</ele>
        <time>2020-05-24T08:51:47Z</time>
      </trkpt>
      <trkpt lat="40.7839040" lon="-8.1551460">
        <ele>565.0</ele>
        <time>2020-05-24T08:51:49Z</time>
      </trkpt>
      <trkpt lat="40.7838690" lon="-8.1550680">
        <ele>563.8</ele>
        <time>2020-05-24T08:51:51Z</time>
      </trkpt>
      <trkpt lat="40.7838360" lon="-8.1549910">
        <ele>562.6</ele>
        <time>2020-05-24T08:51:53Z</time>
      </trkpt>
      <trkpt lat="40.7837890" lon="-8.1548190">
        <ele>561.0</ele>
        <time>2020-05-24T08:51:57Z</time>
      </trkpt>
      <trkpt lat="40.7837750" lon="-8.1547300">
        <ele>560.0</ele>
        <time>2020-05-24T08:51:59Z</time>
      </trkpt>
      <trkpt lat="40.7837840" lon="-8.1545200">
        <ele>558.8</ele>
        <time>2020-05-24T08:52:04Z</time>
      </trkpt>
      <trkpt lat="40.7838020" lon="-8.1544410">
        <ele>557.2</ele>
        <time>2020-05-24T08:52:06Z</time>
      </trkpt>
      <trkpt lat="40.7838330" lon="-8.1543650">
        <ele>556.2</ele>
        <time>2020-05-24T08:52:08Z</time>
      </trkpt>
      <trkpt lat="40.7838730" lon="-8.1542830">
        <ele>554.4</ele>
        <time>2020-05-24T08:52:11Z</time>
      </trkpt>
      <trkpt lat="40.7838760" lon="-8.1542720">
        <ele>554.0</ele>
        <time>2020-05-24T08:52:12Z</time>
      </trkpt>
      <trkpt lat="40.7838660" lon="-8.1542410">
        <ele>551.0</ele>
        <time>2020-05-24T08:52:39Z</time>
      </trkpt>
      <trkpt lat="40.7838750" lon="-8.1542440">
        <ele>551.0</ele>
        <time>2020-05-24T08:52:40Z</time>
      </trkpt>
      <trkpt lat="40.7840350" lon="-8.1540880">
        <ele>551.0</ele>
        <time>2020-05-24T08:52:47Z</time>
      </trkpt>
      <trkpt lat="40.7841010" lon="-8.1538770">
        <ele>549.8</ele>
        <time>2020-05-24T08:52:53Z</time>
      </trkpt>
      <trkpt lat="40.7840270" lon="-8.1538310">
        <ele>549.4</ele>
        <time>2020-05-24T08:52:55Z</time>
      </trkpt>
      <trkpt lat="40.7838980" lon="-8.1538360">
        <ele>548.4</ele>
        <time>2020-05-24T08:52:58Z</time>
      </trkpt>
      <trkpt lat="40.7837320" lon="-8.1538690">
        <ele>547.4</ele>
        <time>2020-05-24T08:53:02Z</time>
      </trkpt>
      <trkpt lat="40.7836200" lon="-8.1539150">
        <ele>544.6</ele>
        <time>2020-05-24T08:53:05Z</time>
      </trkpt>
      <trkpt lat="40.7835590" lon="-8.1539380">
        <ele>543.0</ele>
        <time>2020-05-24T08:53:07Z</time>
      </trkpt>
      <trkpt lat="40.7834510" lon="-8.1539700">
        <ele>542.0</ele>
        <time>2020-05-24T08:53:10Z</time>
      </trkpt>
      <trkpt lat="40.7834170" lon="-8.1539770">
        <ele>541.6</ele>
        <time>2020-05-24T08:53:11Z</time>
      </trkpt>
      <trkpt lat="40.7833310" lon="-8.1539660">
        <ele>540.2</ele>
        <time>2020-05-24T08:53:14Z</time>
      </trkpt>
      <trkpt lat="40.7832520" lon="-8.1539020">
        <ele>538.8</ele>
        <time>2020-05-24T08:53:18Z</time>
      </trkpt>
      <trkpt lat="40.7831860" lon="-8.1538530">
        <ele>537.6</ele>
        <time>2020-05-24T08:53:21Z</time>
      </trkpt>
      <trkpt lat="40.7831300" lon="-8.1538120">
        <ele>536.6</ele>
        <time>2020-05-24T08:53:23Z</time>
      </trkpt>
      <trkpt lat="40.7830700" lon="-8.1537840">
        <ele>535.2</ele>
        <time>2020-05-24T08:53:25Z</time>
      </trkpt>
      <trkpt lat="40.7830060" lon="-8.1537650">
        <ele>533.6</ele>
        <time>2020-05-24T08:53:27Z</time>
      </trkpt>
      <trkpt lat="40.7829420" lon="-8.1537420">
        <ele>532.0</ele>
        <time>2020-05-24T08:53:29Z</time>
      </trkpt>
      <trkpt lat="40.7828800" lon="-8.1537010">
        <ele>530.6</ele>
        <time>2020-05-24T08:53:31Z</time>
      </trkpt>
      <trkpt lat="40.7827800" lon="-8.1536220">
        <ele>528.8</ele>
        <time>2020-05-24T08:53:34Z</time>
      </trkpt>
      <trkpt lat="40.7827530" lon="-8.1535920">
        <ele>528.4</ele>
        <time>2020-05-24T08:53:35Z</time>
      </trkpt>
      <trkpt lat="40.7826990" lon="-8.1535300">
        <ele>527.4</ele>
        <time>2020-05-24T08:53:37Z</time>
      </trkpt>
      <trkpt lat="40.7826230" lon="-8.1534430">
        <ele>526.0</ele>
        <time>2020-05-24T08:53:40Z</time>
      </trkpt>
      <trkpt lat="40.7825350" lon="-8.1533260">
        <ele>524.8</ele>
        <time>2020-05-24T08:53:44Z</time>
      </trkpt>
      <trkpt lat="40.7824830" lon="-8.1532690">
        <ele>523.4</ele>
        <time>2020-05-24T08:53:46Z</time>
      </trkpt>
      <trkpt lat="40.7824050" lon="-8.1531960">
        <ele>521.8</ele>
        <time>2020-05-24T08:53:49Z</time>
      </trkpt>
      <trkpt lat="40.7823230" lon="-8.1531050">
        <ele>520.2</ele>
        <time>2020-05-24T08:53:52Z</time>
      </trkpt>
      <trkpt lat="40.7822410" lon="-8.1530000">
        <ele>519.0</ele>
        <time>2020-05-24T08:53:55Z</time>
      </trkpt>
      <trkpt lat="40.7822140" lon="-8.1529650">
        <ele>517.6</ele>
        <time>2020-05-24T08:53:56Z</time>
      </trkpt>
      <trkpt lat="40.7821630" lon="-8.1528940">
        <ele>516.0</ele>
        <time>2020-05-24T08:53:58Z</time>
      </trkpt>
      <trkpt lat="40.7821150" lon="-8.1528290">
        <ele>514.8</ele>
        <time>2020-05-24T08:54:00Z</time>
      </trkpt>
      <trkpt lat="40.7820400" lon="-8.1527350">
        <ele>513.6</ele>
        <time>2020-05-24T08:54:03Z</time>
      </trkpt>
      <trkpt lat="40.7819890" lon="-8.1526720">
        <ele>512.6</ele>
        <time>2020-05-24T08:54:05Z</time>
      </trkpt>
      <trkpt lat="40.7819050" lon="-8.1525910">
        <ele>511.4</ele>
        <time>2020-05-24T08:54:08Z</time>
      </trkpt>
      <trkpt lat="40.7817980" lon="-8.1524930">
        <ele>510.2</ele>
        <time>2020-05-24T08:54:12Z</time>
      </trkpt>
      <trkpt lat="40.7817340" lon="-8.1524010">
        <ele>508.6</ele>
        <time>2020-05-24T08:54:15Z</time>
      </trkpt>
      <trkpt lat="40.7816910" lon="-8.1523420">
        <ele>507.6</ele>
        <time>2020-05-24T08:54:17Z</time>
      </trkpt>
      <trkpt lat="40.7816510" lon="-8.1522820">
        <ele>506.4</ele>
        <time>2020-05-24T08:54:19Z</time>
      </trkpt>
      <trkpt lat="40.7816230" lon="-8.1522140">
        <ele>505.4</ele>
        <time>2020-05-24T08:54:21Z</time>
      </trkpt>
      <trkpt lat="40.7816010" lon="-8.1521360">
        <ele>504.0</ele>
        <time>2020-05-24T08:54:23Z</time>
      </trkpt>
      <trkpt lat="40.7815860" lon="-8.1520560">
        <ele>502.0</ele>
        <time>2020-05-24T08:54:25Z</time>
      </trkpt>
      <trkpt lat="40.7815750" lon="-8.1519770">
        <ele>500.2</ele>
        <time>2020-05-24T08:54:27Z</time>
      </trkpt>
      <trkpt lat="40.7815680" lon="-8.1518980">
        <ele>499.2</ele>
        <time>2020-05-24T08:54:29Z</time>
      </trkpt>
      <trkpt lat="40.7815300" lon="-8.1517450">
        <ele>497.8</ele>
        <time>2020-05-24T08:54:33Z</time>
      </trkpt>
      <trkpt lat="40.7814950" lon="-8.1516310">
        <ele>496.2</ele>
        <time>2020-05-24T08:54:36Z</time>
      </trkpt>
      <trkpt lat="40.7814700" lon="-8.1515570">
        <ele>495.0</ele>
        <time>2020-05-24T08:54:38Z</time>
      </trkpt>
      <trkpt lat="40.7814320" lon="-8.1514430">
        <ele>493.6</ele>
        <time>2020-05-24T08:54:41Z</time>
      </trkpt>
      <trkpt lat="40.7813930" lon="-8.1513320">
        <ele>492.0</ele>
        <time>2020-05-24T08:54:44Z</time>
      </trkpt>
      <trkpt lat="40.7813640" lon="-8.1512570">
        <ele>491.0</ele>
        <time>2020-05-24T08:54:46Z</time>
      </trkpt>
      <trkpt lat="40.7813250" lon="-8.1511380">
        <ele>489.4</ele>
        <time>2020-05-24T08:54:49Z</time>
      </trkpt>
      <trkpt lat="40.7812770" lon="-8.1510280">
        <ele>488.4</ele>
        <time>2020-05-24T08:54:52Z</time>
      </trkpt>
      <trkpt lat="40.7812160" lon="-8.1509190">
        <ele>487.2</ele>
        <time>2020-05-24T08:54:55Z</time>
      </trkpt>
      <trkpt lat="40.7811460" lon="-8.1508240">
        <ele>486.0</ele>
        <time>2020-05-24T08:54:58Z</time>
      </trkpt>
      <trkpt lat="40.7810330" lon="-8.1507200">
        <ele>484.8</ele>
        <time>2020-05-24T08:55:02Z</time>
      </trkpt>
      <trkpt lat="40.7809720" lon="-8.1506810">
        <ele>483.8</ele>
        <time>2020-05-24T08:55:04Z</time>
      </trkpt>
      <trkpt lat="40.7808750" lon="-8.1506380">
        <ele>482.2</ele>
        <time>2020-05-24T08:55:07Z</time>
      </trkpt>
      <trkpt lat="40.7808080" lon="-8.1506120">
        <ele>480.6</ele>
        <time>2020-05-24T08:55:09Z</time>
      </trkpt>
      <trkpt lat="40.7807080" lon="-8.1505810">
        <ele>479.4</ele>
        <time>2020-05-24T08:55:12Z</time>
      </trkpt>
      <trkpt lat="40.7806440" lon="-8.1505560">
        <ele>478.2</ele>
        <time>2020-05-24T08:55:14Z</time>
      </trkpt>
      <trkpt lat="40.7805770" lon="-8.1504860">
        <ele>477.0</ele>
        <time>2020-05-24T08:55:17Z</time>
      </trkpt>
      <trkpt lat="40.7805500" lon="-8.1503660">
        <ele>475.8</ele>
        <time>2020-05-24T08:55:20Z</time>
      </trkpt>
      <trkpt lat="40.7805230" lon="-8.1502350">
        <ele>474.6</ele>
        <time>2020-05-24T08:55:23Z</time>
      </trkpt>
      <trkpt lat="40.7804840" lon="-8.1501640">
        <ele>473.4</ele>
        <time>2020-05-24T08:55:25Z</time>
      </trkpt>
      <trkpt lat="40.7804090" lon="-8.1500910">
        <ele>472.2</ele>
        <time>2020-05-24T08:55:28Z</time>
      </trkpt>
      <trkpt lat="40.7803160" lon="-8.1500550">
        <ele>471.2</ele>
        <time>2020-05-24T08:55:31Z</time>
      </trkpt>
      <trkpt lat="40.7801480" lon="-8.1500440">
        <ele>469.8</ele>
        <time>2020-05-24T08:55:36Z</time>
      </trkpt>
      <trkpt lat="40.7799770" lon="-8.1500660">
        <ele>468.8</ele>
        <time>2020-05-24T08:55:41Z</time>
      </trkpt>
      <trkpt lat="40.7798850" lon="-8.1500900">
        <ele>467.6</ele>
        <time>2020-05-24T08:55:44Z</time>
      </trkpt>
      <trkpt lat="40.7797640" lon="-8.1501410">
        <ele>466.6</ele>
        <time>2020-05-24T08:55:48Z</time>
      </trkpt>
      <trkpt lat="40.7796080" lon="-8.1502070">
        <ele>465.4</ele>
        <time>2020-05-24T08:55:53Z</time>
      </trkpt>
      <trkpt lat="40.7794580" lon="-8.1502580">
        <ele>464.2</ele>
        <time>2020-05-24T08:55:58Z</time>
      </trkpt>
      <trkpt lat="40.7793300" lon="-8.1502920">
        <ele>463.2</ele>
        <time>2020-05-24T08:56:02Z</time>
      </trkpt>
      <trkpt lat="40.7792010" lon="-8.1503390">
        <ele>462.0</ele>
        <time>2020-05-24T08:56:06Z</time>
      </trkpt>
      <trkpt lat="40.7790780" lon="-8.1503940">
        <ele>461.2</ele>
        <time>2020-05-24T08:56:10Z</time>
      </trkpt>
      <trkpt lat="40.7790490" lon="-8.1504070">
        <ele>461.0</ele>
        <time>2020-05-24T08:56:11Z</time>
      </trkpt>
      <trkpt lat="40.7788620" lon="-8.1504440">
        <ele>460.2</ele>
        <time>2020-05-24T08:56:17Z</time>
      </trkpt>
      <trkpt lat="40.7787720" lon="-8.1504440">
        <ele>459.8</ele>
        <time>2020-05-24T08:56:20Z</time>
      </trkpt>
      <trkpt lat="40.7786680" lon="-8.1503800">
        <ele>458.8</ele>
        <time>2020-05-24T08:56:24Z</time>
      </trkpt>
      <trkpt lat="40.7785940" lon="-8.1503140">
        <ele>457.8</ele>
        <time>2020-05-24T08:56:27Z</time>
      </trkpt>
      <trkpt lat="40.7785650" lon="-8.1502880">
        <ele>457.4</ele>
        <time>2020-05-24T08:56:28Z</time>
      </trkpt>
      <trkpt lat="40.7784880" lon="-8.1502010">
        <ele>456.2</ele>
        <time>2020-05-24T08:56:31Z</time>
      </trkpt>
      <trkpt lat="40.7783860" lon="-8.1500900">
        <ele>455.0</ele>
        <time>2020-05-24T08:56:35Z</time>
      </trkpt>
      <trkpt lat="40.7782280" lon="-8.1500010">
        <ele>454.0</ele>
        <time>2020-05-24T08:56:40Z</time>
      </trkpt>
      <trkpt lat="40.7780670" lon="-8.1499990">
        <ele>452.8</ele>
        <time>2020-05-24T08:56:45Z</time>
      </trkpt>
      <trkpt lat="40.7779450" lon="-8.1500370">
        <ele>451.6</ele>
        <time>2020-05-24T08:56:49Z</time>
      </trkpt>
      <trkpt lat="40.7778560" lon="-8.1500580">
        <ele>450.4</ele>
        <time>2020-05-24T08:56:52Z</time>
      </trkpt>
      <trkpt lat="40.7777630" lon="-8.1500580">
        <ele>449.0</ele>
        <time>2020-05-24T08:56:55Z</time>
      </trkpt>
      <trkpt lat="40.7776770" lon="-8.1500310">
        <ele>447.8</ele>
        <time>2020-05-24T08:56:58Z</time>
      </trkpt>
      <trkpt lat="40.7776030" lon="-8.1499460">
        <ele>446.8</ele>
        <time>2020-05-24T08:57:01Z</time>
      </trkpt>
      <trkpt lat="40.7775620" lon="-8.1498290">
        <ele>445.2</ele>
        <time>2020-05-24T08:57:04Z</time>
      </trkpt>
      <trkpt lat="40.7775350" lon="-8.1497540">
        <ele>444.0</ele>
        <time>2020-05-24T08:57:06Z</time>
      </trkpt>
      <trkpt lat="40.7774920" lon="-8.1496480">
        <ele>443.2</ele>
        <time>2020-05-24T08:57:09Z</time>
      </trkpt>
      <trkpt lat="40.7774670" lon="-8.1496240">
        <ele>443.0</ele>
        <time>2020-05-24T08:57:10Z</time>
      </trkpt>
      <trkpt lat="40.7774430" lon="-8.1496240">
        <ele>442.6</ele>
        <time>2020-05-24T08:57:11Z</time>
      </trkpt>
      <trkpt lat="40.7774020" lon="-8.1496700">
        <ele>441.8</ele>
        <time>2020-05-24T08:57:13Z</time>
      </trkpt>
      <trkpt lat="40.7773690" lon="-8.1497870">
        <ele>440.6</ele>
        <time>2020-05-24T08:57:16Z</time>
      </trkpt>
      <trkpt lat="40.7773510" lon="-8.1499710">
        <ele>439.2</ele>
        <time>2020-05-24T08:57:20Z</time>
      </trkpt>
      <trkpt lat="40.7773090" lon="-8.1502180">
        <ele>438.8</ele>
        <time>2020-05-24T08:57:26Z</time>
      </trkpt>
      <trkpt lat="40.7772090" lon="-8.1504540">
        <ele>438.8</ele>
        <time>2020-05-24T08:57:33Z</time>
      </trkpt>
      <trkpt lat="40.7771620" lon="-8.1505450">
        <ele>438.8</ele>
        <time>2020-05-24T08:57:36Z</time>
      </trkpt>
      <trkpt lat="40.7770350" lon="-8.1507350">
        <ele>439.4</ele>
        <time>2020-05-24T08:57:43Z</time>
      </trkpt>
      <trkpt lat="40.7769310" lon="-8.1508530">
        <ele>440.2</ele>
        <time>2020-05-24T08:57:48Z</time>
      </trkpt>
      <trkpt lat="40.7768880" lon="-8.1508980">
        <ele>440.4</ele>
        <time>2020-05-24T08:57:50Z</time>
      </trkpt>
      <trkpt lat="40.7767430" lon="-8.1510560">
        <ele>441.0</ele>
        <time>2020-05-24T08:57:57Z</time>
      </trkpt>
      <trkpt lat="40.7766810" lon="-8.1511220">
        <ele>441.6</ele>
        <time>2020-05-24T08:58:00Z</time>
      </trkpt>
      <trkpt lat="40.7765600" lon="-8.1512490">
        <ele>441.8</ele>
        <time>2020-05-24T08:58:06Z</time>
      </trkpt>
      <trkpt lat="40.7764040" lon="-8.1514040">
        <ele>441.8</ele>
        <time>2020-05-24T08:58:13Z</time>
      </trkpt>
      <trkpt lat="40.7762310" lon="-8.1515570">
        <ele>442.2</ele>
        <time>2020-05-24T08:58:20Z</time>
      </trkpt>
      <trkpt lat="40.7762060" lon="-8.1515810">
        <ele>442.4</ele>
        <time>2020-05-24T08:58:21Z</time>
      </trkpt>
      <trkpt lat="40.7761320" lon="-8.1516510">
        <ele>442.6</ele>
        <time>2020-05-24T08:58:24Z</time>
      </trkpt>
      <trkpt lat="40.7759800" lon="-8.1518400">
        <ele>443.2</ele>
        <time>2020-05-24T08:58:31Z</time>
      </trkpt>
      <trkpt lat="40.7758830" lon="-8.1520860">
        <ele>442.6</ele>
        <time>2020-05-24T08:58:38Z</time>
      </trkpt>
      <trkpt lat="40.7758470" lon="-8.1523230">
        <ele>442.4</ele>
        <time>2020-05-24T08:58:44Z</time>
      </trkpt>
      <trkpt lat="40.7758310" lon="-8.1525620">
        <ele>442.2</ele>
        <time>2020-05-24T08:58:50Z</time>
      </trkpt>
      <trkpt lat="40.7758070" lon="-8.1528270">
        <ele>442.0</ele>
        <time>2020-05-24T08:58:57Z</time>
      </trkpt>
      <trkpt lat="40.7757940" lon="-8.1529770">
        <ele>441.4</ele>
        <time>2020-05-24T08:59:01Z</time>
      </trkpt>
      <trkpt lat="40.7758130" lon="-8.1531790">
        <ele>440.2</ele>
        <time>2020-05-24T08:59:06Z</time>
      </trkpt>
      <trkpt lat="40.7758660" lon="-8.1534010">
        <ele>439.2</ele>
        <time>2020-05-24T08:59:12Z</time>
      </trkpt>
      <trkpt lat="40.7759200" lon="-8.1536080">
        <ele>438.0</ele>
        <time>2020-05-24T08:59:18Z</time>
      </trkpt>
      <trkpt lat="40.7759880" lon="-8.1537720">
        <ele>437.0</ele>
        <time>2020-05-24T08:59:22Z</time>
      </trkpt>
      <trkpt lat="40.7760430" lon="-8.1539360">
        <ele>436.0</ele>
        <time>2020-05-24T08:59:26Z</time>
      </trkpt>
      <trkpt lat="40.7761190" lon="-8.1541300">
        <ele>434.8</ele>
        <time>2020-05-24T08:59:31Z</time>
      </trkpt>
      <trkpt lat="40.7762030" lon="-8.1542980">
        <ele>433.8</ele>
        <time>2020-05-24T08:59:36Z</time>
      </trkpt>
      <trkpt lat="40.7763020" lon="-8.1544710">
        <ele>432.4</ele>
        <time>2020-05-24T08:59:41Z</time>
      </trkpt>
      <trkpt lat="40.7764140" lon="-8.1546570">
        <ele>431.6</ele>
        <time>2020-05-24T08:59:47Z</time>
      </trkpt>
      <trkpt lat="40.7764320" lon="-8.1546870">
        <ele>431.4</ele>
        <time>2020-05-24T08:59:48Z</time>
      </trkpt>
      <trkpt lat="40.7765370" lon="-8.1548370">
        <ele>430.4</ele>
        <time>2020-05-24T08:59:53Z</time>
      </trkpt>
      <trkpt lat="40.7766470" lon="-8.1550400">
        <ele>429.8</ele>
        <time>2020-05-24T08:59:59Z</time>
      </trkpt>
      <trkpt lat="40.7766880" lon="-8.1551830">
        <ele>429.4</ele>
        <time>2020-05-24T09:00:03Z</time>
      </trkpt>
      <trkpt lat="40.7767110" lon="-8.1552830">
        <ele>429.0</ele>
        <time>2020-05-24T09:00:06Z</time>
      </trkpt>
      <trkpt lat="40.7767480" lon="-8.1555310">
        <ele>429.4</ele>
        <time>2020-05-24T09:00:14Z</time>
      </trkpt>
      <trkpt lat="40.7767770" lon="-8.1557010">
        <ele>430.0</ele>
        <time>2020-05-24T09:00:19Z</time>
      </trkpt>
      <trkpt lat="40.7768150" lon="-8.1558500">
        <ele>430.4</ele>
        <time>2020-05-24T09:00:24Z</time>
      </trkpt>
      <trkpt lat="40.7768750" lon="-8.1559690">
        <ele>431.4</ele>
        <time>2020-05-24T09:00:28Z</time>
      </trkpt>
      <trkpt lat="40.7769840" lon="-8.1561710">
        <ele>432.2</ele>
        <time>2020-05-24T09:00:35Z</time>
      </trkpt>
      <trkpt lat="40.7770090" lon="-8.1562220">
        <ele>432.6</ele>
        <time>2020-05-24T09:00:37Z</time>
      </trkpt>
      <trkpt lat="40.7770650" lon="-8.1563650">
        <ele>433.8</ele>
        <time>2020-05-24T09:00:42Z</time>
      </trkpt>
      <trkpt lat="40.7771330" lon="-8.1564970">
        <ele>434.6</ele>
        <time>2020-05-24T09:00:47Z</time>
      </trkpt>
      <trkpt lat="40.7771470" lon="-8.1565200">
        <ele>435.0</ele>
        <time>2020-05-24T09:00:48Z</time>
      </trkpt>
      <trkpt lat="40.7771930" lon="-8.1566090">
        <ele>436.2</ele>
        <time>2020-05-24T09:00:52Z</time>
      </trkpt>
      <trkpt lat="40.7772770" lon="-8.1567440">
        <ele>437.4</ele>
        <time>2020-05-24T09:00:58Z</time>
      </trkpt>
      <trkpt lat="40.7773590" lon="-8.1568730">
        <ele>438.4</ele>
        <time>2020-05-24T09:01:03Z</time>
      </trkpt>
      <trkpt lat="40.7774180" lon="-8.1569790">
        <ele>439.8</ele>
        <time>2020-05-24T09:01:07Z</time>
      </trkpt>
      <trkpt lat="40.7774590" lon="-8.1570600">
        <ele>441.0</ele>
        <time>2020-05-24T09:01:10Z</time>
      </trkpt>
      <trkpt lat="40.7775360" lon="-8.1571770">
        <ele>442.0</ele>
        <time>2020-05-24T09:01:15Z</time>
      </trkpt>
      <trkpt lat="40.7776750" lon="-8.1573560">
        <ele>443.0</ele>
        <time>2020-05-24T09:01:24Z</time>
      </trkpt>
      <trkpt lat="40.7776910" lon="-8.1573780">
        <ele>443.2</ele>
        <time>2020-05-24T09:01:25Z</time>
      </trkpt>
      <trkpt lat="40.7777410" lon="-8.1574390">
        <ele>443.8</ele>
        <time>2020-05-24T09:01:28Z</time>
      </trkpt>
      <trkpt lat="40.7777700" lon="-8.1574870">
        <ele>444.2</ele>
        <time>2020-05-24T09:01:30Z</time>
      </trkpt>
      <trkpt lat="40.7777990" lon="-8.1575380">
        <ele>444.8</ele>
        <time>2020-05-24T09:01:32Z</time>
      </trkpt>
      <trkpt lat="40.7778420" lon="-8.1576090">
        <ele>445.2</ele>
        <time>2020-05-24T09:01:35Z</time>
      </trkpt>
      <trkpt lat="40.7778860" lon="-8.1576740">
        <ele>446.6</ele>
        <time>2020-05-24T09:01:38Z</time>
      </trkpt>
      <trkpt lat="40.7779410" lon="-8.1577610">
        <ele>447.6</ele>
        <time>2020-05-24T09:01:42Z</time>
      </trkpt>
      <trkpt lat="40.7780150" lon="-8.1578940">
        <ele>448.8</ele>
        <time>2020-05-24T09:01:48Z</time>
      </trkpt>
      <trkpt lat="40.7781230" lon="-8.1580390">
        <ele>450.0</ele>
        <time>2020-05-24T09:01:55Z</time>
      </trkpt>
      <trkpt lat="40.7781820" lon="-8.1580900">
        <ele>451.4</ele>
        <time>2020-05-24T09:01:58Z</time>
      </trkpt>
      <trkpt lat="40.7782780" lon="-8.1581730">
        <ele>452.4</ele>
        <time>2020-05-24T09:02:03Z</time>
      </trkpt>
      <trkpt lat="40.7784360" lon="-8.1582740">
        <ele>453.4</ele>
        <time>2020-05-24T09:02:10Z</time>
      </trkpt>
      <trkpt lat="40.7785370" lon="-8.1583120">
        <ele>454.8</ele>
        <time>2020-05-24T09:02:14Z</time>
      </trkpt>
      <trkpt lat="40.7787110" lon="-8.1583850">
        <ele>455.4</ele>
        <time>2020-05-24T09:02:21Z</time>
      </trkpt>
      <trkpt lat="40.7788150" lon="-8.1584430">
        <ele>455.8</ele>
        <time>2020-05-24T09:02:25Z</time>
      </trkpt>
      <trkpt lat="40.7789900" lon="-8.1585180">
        <ele>456.0</ele>
        <time>2020-05-24T09:02:32Z</time>
      </trkpt>
      <trkpt lat="40.7791720" lon="-8.1586300">
        <ele>456.0</ele>
        <time>2020-05-24T09:02:40Z</time>
      </trkpt>
      <trkpt lat="40.7792710" lon="-8.1588660">
        <ele>456.0</ele>
        <time>2020-05-24T09:02:47Z</time>
      </trkpt>
      <trkpt lat="40.7793290" lon="-8.1590920">
        <ele>456.0</ele>
        <time>2020-05-24T09:02:55Z</time>
      </trkpt>
      <trkpt lat="40.7793290" lon="-8.1593650">
        <ele>456.2</ele>
        <time>2020-05-24T09:03:03Z</time>
      </trkpt>
      <trkpt lat="40.7792990" lon="-8.1596260">
        <ele>456.2</ele>
        <time>2020-05-24T09:03:10Z</time>
      </trkpt>
      <trkpt lat="40.7792810" lon="-8.1598160">
        <ele>456.4</ele>
        <time>2020-05-24T09:03:15Z</time>
      </trkpt>
      <trkpt lat="40.7792930" lon="-8.1599980">
        <ele>456.8</ele>
        <time>2020-05-24T09:03:20Z</time>
      </trkpt>
      <trkpt lat="40.7793410" lon="-8.1602090">
        <ele>457.8</ele>
        <time>2020-05-24T09:03:26Z</time>
      </trkpt>
      <trkpt lat="40.7793820" lon="-8.1603500">
        <ele>458.6</ele>
        <time>2020-05-24T09:03:30Z</time>
      </trkpt>
      <trkpt lat="40.7794300" lon="-8.1604820">
        <ele>459.0</ele>
        <time>2020-05-24T09:03:34Z</time>
      </trkpt>
      <trkpt lat="40.7795080" lon="-8.1607120">
        <ele>459.6</ele>
        <time>2020-05-24T09:03:41Z</time>
      </trkpt>
      <trkpt lat="40.7795670" lon="-8.1608700">
        <ele>460.0</ele>
        <time>2020-05-24T09:03:46Z</time>
      </trkpt>
      <trkpt lat="40.7796220" lon="-8.1610960">
        <ele>460.4</ele>
        <time>2020-05-24T09:03:53Z</time>
      </trkpt>
      <trkpt lat="40.7796240" lon="-8.1612040">
        <ele>460.6</ele>
        <time>2020-05-24T09:03:56Z</time>
      </trkpt>
      <trkpt lat="40.7796410" lon="-8.1614590">
        <ele>460.4</ele>
        <time>2020-05-24T09:04:03Z</time>
      </trkpt>
      <trkpt lat="40.7796680" lon="-8.1616960">
        <ele>460.2</ele>
        <time>2020-05-24T09:04:10Z</time>
      </trkpt>
      <trkpt lat="40.7797300" lon="-8.1618240">
        <ele>460.2</ele>
        <time>2020-05-24T09:04:15Z</time>
      </trkpt>
      <trkpt lat="40.7798810" lon="-8.1618630">
        <ele>461.6</ele>
        <time>2020-05-24T09:04:21Z</time>
      </trkpt>
      <trkpt lat="40.7799550" lon="-8.1618670">
        <ele>462.6</ele>
        <time>2020-05-24T09:04:24Z</time>
      </trkpt>
      <trkpt lat="40.7800740" lon="-8.1618820">
        <ele>463.8</ele>
        <time>2020-05-24T09:04:29Z</time>
      </trkpt>
      <trkpt lat="40.7802400" lon="-8.1619760">
        <ele>463.8</ele>
        <time>2020-05-24T09:04:37Z</time>
      </trkpt>
      <trkpt lat="40.7802940" lon="-8.1620020">
        <ele>463.6</ele>
        <time>2020-05-24T09:04:40Z</time>
      </trkpt>
      <trkpt lat="40.7804320" lon="-8.1621080">
        <ele>462.6</ele>
        <time>2020-05-24T09:04:46Z</time>
      </trkpt>
      <trkpt lat="40.7805410" lon="-8.1622020">
        <ele>461.4</ele>
        <time>2020-05-24T09:04:51Z</time>
      </trkpt>
      <trkpt lat="40.7806730" lon="-8.1623300">
        <ele>460.2</ele>
        <time>2020-05-24T09:04:57Z</time>
      </trkpt>
      <trkpt lat="40.7808110" lon="-8.1624490">
        <ele>459.2</ele>
        <time>2020-05-24T09:05:03Z</time>
      </trkpt>
      <trkpt lat="40.7808990" lon="-8.1625190">
        <ele>458.2</ele>
        <time>2020-05-24T09:05:07Z</time>
      </trkpt>
      <trkpt lat="40.7810410" lon="-8.1626190">
        <ele>456.8</ele>
        <time>2020-05-24T09:05:13Z</time>
      </trkpt>
      <trkpt lat="40.7811220" lon="-8.1627530">
        <ele>455.4</ele>
        <time>2020-05-24T09:05:17Z</time>
      </trkpt>
      <trkpt lat="40.7811800" lon="-8.1628850">
        <ele>454.0</ele>
        <time>2020-05-24T09:05:21Z</time>
      </trkpt>
      <trkpt lat="40.7812350" lon="-8.1631210">
        <ele>452.8</ele>
        <time>2020-05-24T09:05:28Z</time>
      </trkpt>
      <trkpt lat="40.7812370" lon="-8.1632850">
        <ele>451.8</ele>
        <time>2020-05-24T09:05:33Z</time>
      </trkpt>
      <trkpt lat="40.7812300" lon="-8.1634540">
        <ele>450.6</ele>
        <time>2020-05-24T09:05:38Z</time>
      </trkpt>
      <trkpt lat="40.7812150" lon="-8.1635860">
        <ele>449.4</ele>
        <time>2020-05-24T09:05:42Z</time>
      </trkpt>
      <trkpt lat="40.7812020" lon="-8.1636780">
        <ele>448.0</ele>
        <time>2020-05-24T09:05:45Z</time>
      </trkpt>
      <trkpt lat="40.7812000" lon="-8.1637620">
        <ele>446.8</ele>
        <time>2020-05-24T09:05:48Z</time>
      </trkpt>
      <trkpt lat="40.7811990" lon="-8.1638200">
        <ele>445.8</ele>
        <time>2020-05-24T09:05:50Z</time>
      </trkpt>
      <trkpt lat="40.7812030" lon="-8.1638870">
        <ele>444.6</ele>
        <time>2020-05-24T09:05:52Z</time>
      </trkpt>
      <trkpt lat="40.7811860" lon="-8.1639980">
        <ele>443.0</ele>
        <time>2020-05-24T09:05:55Z</time>
      </trkpt>
      <trkpt lat="40.7811620" lon="-8.1641020">
        <ele>441.4</ele>
        <time>2020-05-24T09:05:58Z</time>
      </trkpt>
      <trkpt lat="40.7811290" lon="-8.1642180">
        <ele>440.4</ele>
        <time>2020-05-24T09:06:01Z</time>
      </trkpt>
      <trkpt lat="40.7811070" lon="-8.1642870">
        <ele>439.2</ele>
        <time>2020-05-24T09:06:03Z</time>
      </trkpt>
      <trkpt lat="40.7810820" lon="-8.1643440">
        <ele>438.2</ele>
        <time>2020-05-24T09:06:05Z</time>
      </trkpt>
      <trkpt lat="40.7810370" lon="-8.1644190">
        <ele>436.6</ele>
        <time>2020-05-24T09:06:08Z</time>
      </trkpt>
      <trkpt lat="40.7810030" lon="-8.1644970">
        <ele>435.0</ele>
        <time>2020-05-24T09:06:11Z</time>
      </trkpt>
      <trkpt lat="40.7809860" lon="-8.1645540">
        <ele>434.0</ele>
        <time>2020-05-24T09:06:13Z</time>
      </trkpt>
      <trkpt lat="40.7809540" lon="-8.1646350">
        <ele>432.4</ele>
        <time>2020-05-24T09:06:16Z</time>
      </trkpt>
      <trkpt lat="40.7809240" lon="-8.1647220">
        <ele>431.0</ele>
        <time>2020-05-24T09:06:19Z</time>
      </trkpt>
      <trkpt lat="40.7809090" lon="-8.1647860">
        <ele>429.8</ele>
        <time>2020-05-24T09:06:21Z</time>
      </trkpt>
      <trkpt lat="40.7808920" lon="-8.1648420">
        <ele>428.6</ele>
        <time>2020-05-24T09:06:23Z</time>
      </trkpt>
      <trkpt lat="40.7808820" lon="-8.1648720">
        <ele>427.6</ele>
        <time>2020-05-24T09:06:24Z</time>
      </trkpt>
      <trkpt lat="40.7808520" lon="-8.1649590">
        <ele>425.8</ele>
        <time>2020-05-24T09:06:27Z</time>
      </trkpt>
      <trkpt lat="40.7808450" lon="-8.1649810">
        <ele>425.2</ele>
        <time>2020-05-24T09:06:28Z</time>
      </trkpt>
      <trkpt lat="40.7809670" lon="-8.1649770">
        <ele>381.2</ele>
        <time>2020-05-24T10:05:30Z</time>
      </trkpt>
      <trkpt lat="40.7809860" lon="-8.1649500">
        <ele>381.2</ele>
        <time>2020-05-24T10:05:31Z</time>
      </trkpt>
      <trkpt lat="40.7809990" lon="-8.1649020">
        <ele>380.8</ele>
        <time>2020-05-24T10:05:33Z</time>
      </trkpt>
      <trkpt lat="40.7810370" lon="-8.1648180">
        <ele>382.4</ele>
        <time>2020-05-24T10:05:36Z</time>
      </trkpt>
      <trkpt lat="40.7810460" lon="-8.1647900">
        <ele>383.0</ele>
        <time>2020-05-24T10:05:37Z</time>
      </trkpt>
      <trkpt lat="40.7810580" lon="-8.1647320">
        <ele>384.2</ele>
        <time>2020-05-24T10:05:39Z</time>
      </trkpt>
      <trkpt lat="40.7810670" lon="-8.1647070">
        <ele>383.8</ele>
        <time>2020-05-24T10:05:40Z</time>
      </trkpt>
      <trkpt lat="40.7810820" lon="-8.1646860">
        <ele>384.0</ele>
        <time>2020-05-24T10:05:41Z</time>
      </trkpt>
      <trkpt lat="40.7810910" lon="-8.1646620">
        <ele>384.8</ele>
        <time>2020-05-24T10:05:42Z</time>
      </trkpt>
      <trkpt lat="40.7810970" lon="-8.1646190">
        <ele>385.8</ele>
        <time>2020-05-24T10:05:44Z</time>
      </trkpt>
      <trkpt lat="40.7811050" lon="-8.1645970">
        <ele>386.6</ele>
        <time>2020-05-24T10:05:45Z</time>
      </trkpt>
      <trkpt lat="40.7811110" lon="-8.1645730">
        <ele>386.8</ele>
        <time>2020-05-24T10:05:46Z</time>
      </trkpt>
      <trkpt lat="40.7811200" lon="-8.1645530">
        <ele>387.8</ele>
        <time>2020-05-24T10:05:47Z</time>
      </trkpt>
      <trkpt lat="40.7811260" lon="-8.1645280">
        <ele>385.8</ele>
        <time>2020-05-24T10:05:48Z</time>
      </trkpt>
      <trkpt lat="40.7811370" lon="-8.1645070">
        <ele>385.0</ele>
        <time>2020-05-24T10:05:49Z</time>
      </trkpt>
      <trkpt lat="40.7811500" lon="-8.1644850">
        <ele>385.0</ele>
        <time>2020-05-24T10:05:50Z</time>
      </trkpt>
      <trkpt lat="40.7811790" lon="-8.1644180">
        <ele>386.0</ele>
        <time>2020-05-24T10:05:53Z</time>
      </trkpt>
      <trkpt lat="40.7811890" lon="-8.1643950">
        <ele>386.4</ele>
        <time>2020-05-24T10:05:54Z</time>
      </trkpt>
      <trkpt lat="40.7812010" lon="-8.1643750">
        <ele>387.0</ele>
        <time>2020-05-24T10:05:55Z</time>
      </trkpt>
      <trkpt lat="40.7812220" lon="-8.1643310">
        <ele>388.0</ele>
        <time>2020-05-24T10:05:57Z</time>
      </trkpt>
      <trkpt lat="40.7812510" lon="-8.1642620">
        <ele>389.4</ele>
        <time>2020-05-24T10:06:00Z</time>
      </trkpt>
      <trkpt lat="40.7812730" lon="-8.1642110">
        <ele>390.4</ele>
        <time>2020-05-24T10:06:02Z</time>
      </trkpt>
      <trkpt lat="40.7812910" lon="-8.1641650">
        <ele>391.2</ele>
        <time>2020-05-24T10:06:04Z</time>
      </trkpt>
      <trkpt lat="40.7813000" lon="-8.1641410">
        <ele>391.6</ele>
        <time>2020-05-24T10:06:05Z</time>
      </trkpt>
      <trkpt lat="40.7813100" lon="-8.1641190">
        <ele>392.0</ele>
        <time>2020-05-24T10:06:06Z</time>
      </trkpt>
      <trkpt lat="40.7813260" lon="-8.1640710">
        <ele>392.8</ele>
        <time>2020-05-24T10:06:08Z</time>
      </trkpt>
      <trkpt lat="40.7813280" lon="-8.1640200">
        <ele>394.0</ele>
        <time>2020-05-24T10:06:10Z</time>
      </trkpt>
      <trkpt lat="40.7813260" lon="-8.1639410">
        <ele>395.2</ele>
        <time>2020-05-24T10:06:13Z</time>
      </trkpt>
      <trkpt lat="40.7813130" lon="-8.1638830">
        <ele>395.6</ele>
        <time>2020-05-24T10:06:15Z</time>
      </trkpt>
      <trkpt lat="40.7813100" lon="-8.1638280">
        <ele>396.8</ele>
        <time>2020-05-24T10:06:17Z</time>
      </trkpt>
      <trkpt lat="40.7813010" lon="-8.1637750">
        <ele>397.6</ele>
        <time>2020-05-24T10:06:19Z</time>
      </trkpt>
      <trkpt lat="40.7812930" lon="-8.1637490">
        <ele>397.8</ele>
        <time>2020-05-24T10:06:20Z</time>
      </trkpt>
      <trkpt lat="40.7812830" lon="-8.1636960">
        <ele>398.2</ele>
        <time>2020-05-24T10:06:22Z</time>
      </trkpt>
      <trkpt lat="40.7812810" lon="-8.1636430">
        <ele>399.0</ele>
        <time>2020-05-24T10:06:24Z</time>
      </trkpt>
      <trkpt lat="40.7812710" lon="-8.1635910">
        <ele>399.8</ele>
        <time>2020-05-24T10:06:26Z</time>
      </trkpt>
      <trkpt lat="40.7812640" lon="-8.1635640">
        <ele>400.2</ele>
        <time>2020-05-24T10:06:27Z</time>
      </trkpt>
      <trkpt lat="40.7812580" lon="-8.1635110">
        <ele>401.4</ele>
        <time>2020-05-24T10:06:29Z</time>
      </trkpt>
      <trkpt lat="40.7812570" lon="-8.1634040">
        <ele>402.4</ele>
        <time>2020-05-24T10:06:33Z</time>
      </trkpt>
      <trkpt lat="40.7812550" lon="-8.1633770">
        <ele>403.0</ele>
        <time>2020-05-24T10:06:34Z</time>
      </trkpt>
      <trkpt lat="40.7812550" lon="-8.1633500">
        <ele>403.4</ele>
        <time>2020-05-24T10:06:35Z</time>
      </trkpt>
      <trkpt lat="40.7812570" lon="-8.1633220">
        <ele>403.6</ele>
        <time>2020-05-24T10:06:36Z</time>
      </trkpt>
      <trkpt lat="40.7812550" lon="-8.1632940">
        <ele>403.8</ele>
        <time>2020-05-24T10:06:37Z</time>
      </trkpt>
      <trkpt lat="40.7812500" lon="-8.1632380">
        <ele>404.2</ele>
        <time>2020-05-24T10:06:38Z</time>
      </trkpt>
      <trkpt lat="40.7812410" lon="-8.1631820">
        <ele>405.2</ele>
        <time>2020-05-24T10:06:41Z</time>
      </trkpt>
      <trkpt lat="40.7812290" lon="-8.1630820">
        <ele>406.6</ele>
        <time>2020-05-24T10:06:45Z</time>
      </trkpt>
      <trkpt lat="40.7812190" lon="-8.1629670">
        <ele>407.6</ele>
        <time>2020-05-24T10:06:49Z</time>
      </trkpt>
      <trkpt lat="40.7811660" lon="-8.1627970">
        <ele>408.8</ele>
        <time>2020-05-24T10:06:55Z</time>
      </trkpt>
      <trkpt lat="40.7811410" lon="-8.1626750">
        <ele>409.4</ele>
        <time>2020-05-24T10:06:59Z</time>
      </trkpt>
      <trkpt lat="40.7810790" lon="-8.1625890">
        <ele>409.8</ele>
        <time>2020-05-24T10:07:03Z</time>
      </trkpt>
      <trkpt lat="40.7809650" lon="-8.1624790">
        <ele>410.6</ele>
        <time>2020-05-24T10:07:10Z</time>
      </trkpt>
      <trkpt lat="40.7809490" lon="-8.1624640">
        <ele>411.2</ele>
        <time>2020-05-24T10:07:11Z</time>
      </trkpt>
      <trkpt lat="40.7808600" lon="-8.1623920">
        <ele>412.4</ele>
        <time>2020-05-24T10:07:16Z</time>
      </trkpt>
      <trkpt lat="40.7807850" lon="-8.1623300">
        <ele>413.4</ele>
        <time>2020-05-24T10:07:20Z</time>
      </trkpt>
      <trkpt lat="40.7807340" lon="-8.1622830">
        <ele>413.8</ele>
        <time>2020-05-24T10:07:23Z</time>
      </trkpt>
      <trkpt lat="40.7807150" lon="-8.1622660">
        <ele>414.2</ele>
        <time>2020-05-24T10:07:24Z</time>
      </trkpt>
      <trkpt lat="40.7806950" lon="-8.1622490">
        <ele>414.4</ele>
        <time>2020-05-24T10:07:25Z</time>
      </trkpt>
      <trkpt lat="40.7806770" lon="-8.1622310">
        <ele>414.6</ele>
        <time>2020-05-24T10:07:26Z</time>
      </trkpt>
      <trkpt lat="40.7806600" lon="-8.1622160">
        <ele>414.6</ele>
        <time>2020-05-24T10:07:27Z</time>
      </trkpt>
      <trkpt lat="40.7806460" lon="-8.1621990">
        <ele>414.8</ele>
        <time>2020-05-24T10:07:28Z</time>
      </trkpt>
      <trkpt lat="40.7806300" lon="-8.1621870">
        <ele>415.0</ele>
        <time>2020-05-24T10:07:29Z</time>
      </trkpt>
      <trkpt lat="40.7806110" lon="-8.1621690">
        <ele>415.2</ele>
        <time>2020-05-24T10:07:30Z</time>
      </trkpt>
      <trkpt lat="40.7805950" lon="-8.1621520">
        <ele>415.4</ele>
        <time>2020-05-24T10:07:31Z</time>
      </trkpt>
      <trkpt lat="40.7805440" lon="-8.1620950">
        <ele>415.8</ele>
        <time>2020-05-24T10:07:34Z</time>
      </trkpt>
      <trkpt lat="40.7804570" lon="-8.1620160">
        <ele>416.6</ele>
        <time>2020-05-24T10:07:39Z</time>
      </trkpt>
      <trkpt lat="40.7803430" lon="-8.1619400">
        <ele>417.2</ele>
        <time>2020-05-24T10:07:45Z</time>
      </trkpt>
      <trkpt lat="40.7803060" lon="-8.1619180">
        <ele>417.6</ele>
        <time>2020-05-24T10:07:47Z</time>
      </trkpt>
      <trkpt lat="40.7802480" lon="-8.1618680">
        <ele>418.0</ele>
        <time>2020-05-24T10:07:50Z</time>
      </trkpt>
      <trkpt lat="40.7801640" lon="-8.1618260">
        <ele>418.8</ele>
        <time>2020-05-24T10:07:53Z</time>
      </trkpt>
      <trkpt lat="40.7800370" lon="-8.1618010">
        <ele>419.0</ele>
        <time>2020-05-24T10:07:58Z</time>
      </trkpt>
      <trkpt lat="40.7799060" lon="-8.1617850">
        <ele>419.2</ele>
        <time>2020-05-24T10:08:03Z</time>
      </trkpt>
      <trkpt lat="40.7797280" lon="-8.1617160">
        <ele>418.8</ele>
        <time>2020-05-24T10:08:12Z</time>
      </trkpt>
      <trkpt lat="40.7795990" lon="-8.1616100">
        <ele>417.8</ele>
        <time>2020-05-24T10:08:18Z</time>
      </trkpt>
      <trkpt lat="40.7795410" lon="-8.1615870">
        <ele>417.8</ele>
        <time>2020-05-24T10:08:19Z</time>
      </trkpt>
      <trkpt lat="40.7794190" lon="-8.1615710">
        <ele>416.6</ele>
        <time>2020-05-24T10:08:24Z</time>
      </trkpt>
      <trkpt lat="40.7792860" lon="-8.1615630">
        <ele>415.4</ele>
        <time>2020-05-24T10:08:28Z</time>
      </trkpt>
      <trkpt lat="40.7791690" lon="-8.1615630">
        <ele>414.4</ele>
        <time>2020-05-24T10:08:32Z</time>
      </trkpt>
      <trkpt lat="40.7790740" lon="-8.1615730">
        <ele>413.2</ele>
        <time>2020-05-24T10:08:35Z</time>
      </trkpt>
      <trkpt lat="40.7789860" lon="-8.1615900">
        <ele>412.0</ele>
        <time>2020-05-24T10:08:38Z</time>
      </trkpt>
      <trkpt lat="40.7788970" lon="-8.1616080">
        <ele>410.8</ele>
        <time>2020-05-24T10:08:41Z</time>
      </trkpt>
      <trkpt lat="40.7787770" lon="-8.1616440">
        <ele>409.4</ele>
        <time>2020-05-24T10:08:45Z</time>
      </trkpt>
      <trkpt lat="40.7786600" lon="-8.1617040">
        <ele>408.2</ele>
        <time>2020-05-24T10:08:49Z</time>
      </trkpt>
      <trkpt lat="40.7785520" lon="-8.1617860">
        <ele>407.2</ele>
        <time>2020-05-24T10:08:53Z</time>
      </trkpt>
      <trkpt lat="40.7784510" lon="-8.1618840">
        <ele>406.0</ele>
        <time>2020-05-24T10:08:57Z</time>
      </trkpt>
      <trkpt lat="40.7783150" lon="-8.1619970">
        <ele>405.0</ele>
        <time>2020-05-24T10:09:02Z</time>
      </trkpt>
      <trkpt lat="40.7781930" lon="-8.1621220">
        <ele>403.8</ele>
        <time>2020-05-24T10:09:07Z</time>
      </trkpt>
      <trkpt lat="40.7780600" lon="-8.1622200">
        <ele>402.6</ele>
        <time>2020-05-24T10:09:12Z</time>
      </trkpt>
      <trkpt lat="40.7778920" lon="-8.1623220">
        <ele>401.6</ele>
        <time>2020-05-24T10:09:18Z</time>
      </trkpt>
      <trkpt lat="40.7777120" lon="-8.1623980">
        <ele>400.6</ele>
        <time>2020-05-24T10:09:24Z</time>
      </trkpt>
      <trkpt lat="40.7776630" lon="-8.1624220">
        <ele>400.4</ele>
        <time>2020-05-24T10:09:26Z</time>
      </trkpt>
      <trkpt lat="40.7774930" lon="-8.1624830">
        <ele>399.2</ele>
        <time>2020-05-24T10:09:32Z</time>
      </trkpt>
      <trkpt lat="40.7773140" lon="-8.1625940">
        <ele>398.6</ele>
        <time>2020-05-24T10:09:38Z</time>
      </trkpt>
      <trkpt lat="40.7772520" lon="-8.1626350">
        <ele>398.2</ele>
        <time>2020-05-24T10:09:40Z</time>
      </trkpt>
      <trkpt lat="40.7771240" lon="-8.1627690">
        <ele>397.2</ele>
        <time>2020-05-24T10:09:45Z</time>
      </trkpt>
      <trkpt lat="40.7770540" lon="-8.1628650">
        <ele>396.2</ele>
        <time>2020-05-24T10:09:48Z</time>
      </trkpt>
      <trkpt lat="40.7769820" lon="-8.1629570">
        <ele>395.2</ele>
        <time>2020-05-24T10:09:51Z</time>
      </trkpt>
      <trkpt lat="40.7769150" lon="-8.1630430">
        <ele>393.8</ele>
        <time>2020-05-24T10:09:54Z</time>
      </trkpt>
      <trkpt lat="40.7768210" lon="-8.1631530">
        <ele>392.8</ele>
        <time>2020-05-24T10:09:58Z</time>
      </trkpt>
      <trkpt lat="40.7767960" lon="-8.1631770">
        <ele>392.2</ele>
        <time>2020-05-24T10:09:59Z</time>
      </trkpt>
      <trkpt lat="40.7767710" lon="-8.1631980">
        <ele>391.6</ele>
        <time>2020-05-24T10:10:00Z</time>
      </trkpt>
      <trkpt lat="40.7765950" lon="-8.1632670">
        <ele>390.4</ele>
        <time>2020-05-24T10:10:06Z</time>
      </trkpt>
      <trkpt lat="40.7764740" lon="-8.1632850">
        <ele>389.4</ele>
        <time>2020-05-24T10:10:10Z</time>
      </trkpt>
      <trkpt lat="40.7762890" lon="-8.1633190">
        <ele>388.6</ele>
        <time>2020-05-24T10:10:16Z</time>
      </trkpt>
      <trkpt lat="40.7762010" lon="-8.1633330">
        <ele>388.2</ele>
        <time>2020-05-24T10:10:19Z</time>
      </trkpt>
      <trkpt lat="40.7760190" lon="-8.1633600">
        <ele>387.2</ele>
        <time>2020-05-24T10:10:25Z</time>
      </trkpt>
      <trkpt lat="40.7759880" lon="-8.1633640">
        <ele>387.0</ele>
        <time>2020-05-24T10:10:26Z</time>
      </trkpt>
      <trkpt lat="40.7758020" lon="-8.1634090">
        <ele>386.0</ele>
        <time>2020-05-24T10:10:32Z</time>
      </trkpt>
      <trkpt lat="40.7757720" lon="-8.1634230">
        <ele>385.8</ele>
        <time>2020-05-24T10:10:33Z</time>
      </trkpt>
      <trkpt lat="40.7755810" lon="-8.1635250">
        <ele>385.2</ele>
        <time>2020-05-24T10:10:39Z</time>
      </trkpt>
      <trkpt lat="40.7755180" lon="-8.1635580">
        <ele>384.8</ele>
        <time>2020-05-24T10:10:41Z</time>
      </trkpt>
      <trkpt lat="40.7753540" lon="-8.1636860">
        <ele>384.0</ele>
        <time>2020-05-24T10:10:47Z</time>
      </trkpt>
      <trkpt lat="40.7753250" lon="-8.1637110">
        <ele>383.8</ele>
        <time>2020-05-24T10:10:48Z</time>
      </trkpt>
      <trkpt lat="40.7751830" lon="-8.1637630">
        <ele>382.6</ele>
        <time>2020-05-24T10:10:53Z</time>
      </trkpt>
      <trkpt lat="40.7749920" lon="-8.1637100">
        <ele>381.6</ele>
        <time>2020-05-24T10:10:59Z</time>
      </trkpt>
      <trkpt lat="40.7748180" lon="-8.1638120">
        <ele>380.6</ele>
        <time>2020-05-24T10:11:05Z</time>
      </trkpt>
      <trkpt lat="40.7747060" lon="-8.1639050">
        <ele>379.4</ele>
        <time>2020-05-24T10:11:09Z</time>
      </trkpt>
      <trkpt lat="40.7745920" lon="-8.1639980">
        <ele>378.2</ele>
        <time>2020-05-24T10:11:13Z</time>
      </trkpt>
      <trkpt lat="40.7744770" lon="-8.1640780">
        <ele>377.2</ele>
        <time>2020-05-24T10:11:17Z</time>
      </trkpt>
      <trkpt lat="40.7742710" lon="-8.1641430">
        <ele>376.4</ele>
        <time>2020-05-24T10:11:24Z</time>
      </trkpt>
      <trkpt lat="40.7741380" lon="-8.1641650">
        <ele>376.0</ele>
        <time>2020-05-24T10:11:28Z</time>
      </trkpt>
      <trkpt lat="40.7739560" lon="-8.1641950">
        <ele>375.6</ele>
        <time>2020-05-24T10:11:34Z</time>
      </trkpt>
      <trkpt lat="40.7737660" lon="-8.1641680">
        <ele>375.6</ele>
        <time>2020-05-24T10:11:40Z</time>
      </trkpt>
      <trkpt lat="40.7735850" lon="-8.1640900">
        <ele>375.4</ele>
        <time>2020-05-24T10:11:46Z</time>
      </trkpt>
      <trkpt lat="40.7734180" lon="-8.1639850">
        <ele>375.0</ele>
        <time>2020-05-24T10:11:52Z</time>
      </trkpt>
      <trkpt lat="40.7732480" lon="-8.1638960">
        <ele>374.2</ele>
        <time>2020-05-24T10:11:58Z</time>
      </trkpt>
      <trkpt lat="40.7732190" lon="-8.1638800">
        <ele>374.0</ele>
        <time>2020-05-24T10:11:59Z</time>
      </trkpt>
      <trkpt lat="40.7730670" lon="-8.1638100">
        <ele>372.6</ele>
        <time>2020-05-24T10:12:04Z</time>
      </trkpt>
      <trkpt lat="40.7728930" lon="-8.1637320">
        <ele>371.6</ele>
        <time>2020-05-24T10:12:10Z</time>
      </trkpt>
      <trkpt lat="40.7727220" lon="-8.1636550">
        <ele>370.8</ele>
        <time>2020-05-24T10:12:16Z</time>
      </trkpt>
      <trkpt lat="40.7726320" lon="-8.1636130">
        <ele>370.4</ele>
        <time>2020-05-24T10:12:19Z</time>
      </trkpt>
      <trkpt lat="40.7724470" lon="-8.1635520">
        <ele>369.4</ele>
        <time>2020-05-24T10:12:25Z</time>
      </trkpt>
      <trkpt lat="40.7723220" lon="-8.1635150">
        <ele>368.4</ele>
        <time>2020-05-24T10:12:29Z</time>
      </trkpt>
      <trkpt lat="40.7722280" lon="-8.1634920">
        <ele>367.0</ele>
        <time>2020-05-24T10:12:32Z</time>
      </trkpt>
      <trkpt lat="40.7720760" lon="-8.1634700">
        <ele>365.8</ele>
        <time>2020-05-24T10:12:37Z</time>
      </trkpt>
      <trkpt lat="40.7719750" lon="-8.1634530">
        <ele>364.8</ele>
        <time>2020-05-24T10:12:40Z</time>
      </trkpt>
      <trkpt lat="40.7718490" lon="-8.1634290">
        <ele>363.6</ele>
        <time>2020-05-24T10:12:44Z</time>
      </trkpt>
      <trkpt lat="40.7717020" lon="-8.1633830">
        <ele>362.0</ele>
        <time>2020-05-24T10:12:49Z</time>
      </trkpt>
      <trkpt lat="40.7716450" lon="-8.1633620">
        <ele>360.8</ele>
        <time>2020-05-24T10:12:51Z</time>
      </trkpt>
      <trkpt lat="40.7715590" lon="-8.1633260">
        <ele>359.4</ele>
        <time>2020-05-24T10:12:54Z</time>
      </trkpt>
      <trkpt lat="40.7714980" lon="-8.1632970">
        <ele>358.4</ele>
        <time>2020-05-24T10:12:56Z</time>
      </trkpt>
      <trkpt lat="40.7714680" lon="-8.1632820">
        <ele>358.0</ele>
        <time>2020-05-24T10:12:57Z</time>
      </trkpt>
      <trkpt lat="40.7713830" lon="-8.1632310">
        <ele>357.0</ele>
        <time>2020-05-24T10:13:00Z</time>
      </trkpt>
      <trkpt lat="40.7713000" lon="-8.1631830">
        <ele>355.8</ele>
        <time>2020-05-24T10:13:03Z</time>
      </trkpt>
      <trkpt lat="40.7712400" lon="-8.1631510">
        <ele>354.6</ele>
        <time>2020-05-24T10:13:05Z</time>
      </trkpt>
      <trkpt lat="40.7711490" lon="-8.1630960">
        <ele>353.4</ele>
        <time>2020-05-24T10:13:08Z</time>
      </trkpt>
      <trkpt lat="40.7710810" lon="-8.1630540">
        <ele>352.2</ele>
        <time>2020-05-24T10:13:10Z</time>
      </trkpt>
      <trkpt lat="40.7709780" lon="-8.1630010">
        <ele>351.0</ele>
        <time>2020-05-24T10:13:13Z</time>
      </trkpt>
      <trkpt lat="40.7709040" lon="-8.1629600">
        <ele>349.8</ele>
        <time>2020-05-24T10:13:16Z</time>
      </trkpt>
      <trkpt lat="40.7708490" lon="-8.1629290">
        <ele>348.8</ele>
        <time>2020-05-24T10:13:18Z</time>
      </trkpt>
      <trkpt lat="40.7707650" lon="-8.1628860">
        <ele>347.6</ele>
        <time>2020-05-24T10:13:21Z</time>
      </trkpt>
      <trkpt lat="40.7706830" lon="-8.1628390">
        <ele>346.4</ele>
        <time>2020-05-24T10:13:24Z</time>
      </trkpt>
      <trkpt lat="40.7706010" lon="-8.1627860">
        <ele>345.0</ele>
        <time>2020-05-24T10:13:27Z</time>
      </trkpt>
      <trkpt lat="40.7705240" lon="-8.1627410">
        <ele>343.6</ele>
        <time>2020-05-24T10:13:30Z</time>
      </trkpt>
      <trkpt lat="40.7704410" lon="-8.1626930">
        <ele>342.4</ele>
        <time>2020-05-24T10:13:33Z</time>
      </trkpt>
      <trkpt lat="40.7703410" lon="-8.1626150">
        <ele>341.0</ele>
        <time>2020-05-24T10:13:37Z</time>
      </trkpt>
      <trkpt lat="40.7703040" lon="-8.1625580">
        <ele>340.6</ele>
        <time>2020-05-24T10:13:38Z</time>
      </trkpt>
      <trkpt lat="40.7702920" lon="-8.1625250">
        <ele>339.6</ele>
        <time>2020-05-24T10:13:40Z</time>
      </trkpt>
      <trkpt lat="40.7702870" lon="-8.1624500">
        <ele>339.0</ele>
        <time>2020-05-24T10:13:42Z</time>
      </trkpt>
      <trkpt lat="40.7702990" lon="-8.1624170">
        <ele>338.6</ele>
        <time>2020-05-24T10:13:43Z</time>
      </trkpt>
      <trkpt lat="40.7703580" lon="-8.1623270">
        <ele>337.4</ele>
        <time>2020-05-24T10:13:46Z</time>
      </trkpt>
      <trkpt lat="40.7704890" lon="-8.1621510">
        <ele>336.4</ele>
        <time>2020-05-24T10:13:52Z</time>
      </trkpt>
      <trkpt lat="40.7705880" lon="-8.1620320">
        <ele>336.0</ele>
        <time>2020-05-24T10:13:56Z</time>
      </trkpt>
      <trkpt lat="40.7706390" lon="-8.1619750">
        <ele>336.0</ele>
        <time>2020-05-24T10:13:58Z</time>
      </trkpt>
      <trkpt lat="40.7706630" lon="-8.1619460">
        <ele>336.0</ele>
        <time>2020-05-24T10:13:59Z</time>
      </trkpt>
      <trkpt lat="40.7706860" lon="-8.1619160">
        <ele>336.0</ele>
        <time>2020-05-24T10:14:00Z</time>
      </trkpt>
      <trkpt lat="40.7708190" lon="-8.1617310">
        <ele>335.6</ele>
        <time>2020-05-24T10:14:06Z</time>
      </trkpt>
      <trkpt lat="40.7709220" lon="-8.1615630">
        <ele>335.4</ele>
        <time>2020-05-24T10:14:11Z</time>
      </trkpt>
      <trkpt lat="40.7709860" lon="-8.1612960">
        <ele>334.8</ele>
        <time>2020-05-24T10:14:17Z</time>
      </trkpt>
      <trkpt lat="40.7709790" lon="-8.1610250">
        <ele>334.8</ele>
        <time>2020-05-24T10:14:23Z</time>
      </trkpt>
      <trkpt lat="40.7709700" lon="-8.1609830">
        <ele>334.6</ele>
        <time>2020-05-24T10:14:24Z</time>
      </trkpt>
      <trkpt lat="40.7708740" lon="-8.1607540">
        <ele>334.4</ele>
        <time>2020-05-24T10:14:30Z</time>
      </trkpt>
      <trkpt lat="40.7708310" lon="-8.1606900">
        <ele>334.4</ele>
        <time>2020-05-24T10:14:32Z</time>
      </trkpt>
      <trkpt lat="40.7706900" lon="-8.1605390">
        <ele>334.0</ele>
        <time>2020-05-24T10:14:38Z</time>
      </trkpt>
      <trkpt lat="40.7705400" lon="-8.1603800">
        <ele>334.4</ele>
        <time>2020-05-24T10:14:44Z</time>
      </trkpt>
      <trkpt lat="40.7703970" lon="-8.1602230">
        <ele>334.4</ele>
        <time>2020-05-24T10:14:50Z</time>
      </trkpt>
      <trkpt lat="40.7702750" lon="-8.1600040">
        <ele>335.2</ele>
        <time>2020-05-24T10:14:57Z</time>
      </trkpt>
      <trkpt lat="40.7702640" lon="-8.1599700">
        <ele>335.4</ele>
        <time>2020-05-24T10:14:58Z</time>
      </trkpt>
      <trkpt lat="40.7702160" lon="-8.1597200">
        <ele>335.8</ele>
        <time>2020-05-24T10:15:05Z</time>
      </trkpt>
      <trkpt lat="40.7702130" lon="-8.1595350">
        <ele>336.4</ele>
        <time>2020-05-24T10:15:09Z</time>
      </trkpt>
      <trkpt lat="40.7702450" lon="-8.1592880">
        <ele>336.8</ele>
        <time>2020-05-24T10:15:15Z</time>
      </trkpt>
      <trkpt lat="40.7703100" lon="-8.1591070">
        <ele>337.4</ele>
        <time>2020-05-24T10:15:20Z</time>
      </trkpt>
      <trkpt lat="40.7704110" lon="-8.1589000">
        <ele>338.0</ele>
        <time>2020-05-24T10:15:26Z</time>
      </trkpt>
      <trkpt lat="40.7704540" lon="-8.1587950">
        <ele>338.6</ele>
        <time>2020-05-24T10:15:29Z</time>
      </trkpt>
      <trkpt lat="40.7705470" lon="-8.1585830">
        <ele>339.2</ele>
        <time>2020-05-24T10:15:35Z</time>
      </trkpt>
      <trkpt lat="40.7706520" lon="-8.1583740">
        <ele>339.6</ele>
        <time>2020-05-24T10:15:41Z</time>
      </trkpt>
      <trkpt lat="40.7707370" lon="-8.1582040">
        <ele>340.8</ele>
        <time>2020-05-24T10:15:46Z</time>
      </trkpt>
      <trkpt lat="40.7708380" lon="-8.1580020">
        <ele>341.4</ele>
        <time>2020-05-24T10:15:52Z</time>
      </trkpt>
      <trkpt lat="40.7709020" lon="-8.1578660">
        <ele>341.6</ele>
        <time>2020-05-24T10:15:56Z</time>
      </trkpt>
      <trkpt lat="40.7709340" lon="-8.1577970">
        <ele>341.4</ele>
        <time>2020-05-24T10:15:58Z</time>
      </trkpt>
      <trkpt lat="40.7709470" lon="-8.1577600">
        <ele>341.4</ele>
        <time>2020-05-24T10:15:59Z</time>
      </trkpt>
      <trkpt lat="40.7710430" lon="-8.1575440">
        <ele>341.6</ele>
        <time>2020-05-24T10:16:05Z</time>
      </trkpt>
      <trkpt lat="40.7710740" lon="-8.1574730">
        <ele>341.6</ele>
        <time>2020-05-24T10:16:07Z</time>
      </trkpt>
      <trkpt lat="40.7711820" lon="-8.1572750">
        <ele>341.4</ele>
        <time>2020-05-24T10:16:13Z</time>
      </trkpt>
      <trkpt lat="40.7713130" lon="-8.1571040">
        <ele>341.2</ele>
        <time>2020-05-24T10:16:19Z</time>
      </trkpt>
      <trkpt lat="40.7714270" lon="-8.1569700">
        <ele>341.0</ele>
        <time>2020-05-24T10:16:24Z</time>
      </trkpt>
      <trkpt lat="40.7715900" lon="-8.1568490">
        <ele>340.8</ele>
        <time>2020-05-24T10:16:30Z</time>
      </trkpt>
      <trkpt lat="40.7717720" lon="-8.1567110">
        <ele>340.2</ele>
        <time>2020-05-24T10:16:37Z</time>
      </trkpt>
      <trkpt lat="40.7719370" lon="-8.1565620">
        <ele>340.4</ele>
        <time>2020-05-24T10:16:44Z</time>
      </trkpt>
      <trkpt lat="40.7720770" lon="-8.1563610">
        <ele>340.8</ele>
        <time>2020-05-24T10:16:51Z</time>
      </trkpt>
      <trkpt lat="40.7721540" lon="-8.1561360">
        <ele>341.0</ele>
        <time>2020-05-24T10:16:57Z</time>
      </trkpt>
      <trkpt lat="40.7721620" lon="-8.1559700">
        <ele>341.2</ele>
        <time>2020-05-24T10:17:01Z</time>
      </trkpt>
      <trkpt lat="40.7721520" lon="-8.1558520">
        <ele>341.6</ele>
        <time>2020-05-24T10:17:04Z</time>
      </trkpt>
      <trkpt lat="40.7721460" lon="-8.1558150">
        <ele>341.8</ele>
        <time>2020-05-24T10:17:05Z</time>
      </trkpt>
      <trkpt lat="40.7720800" lon="-8.1555790">
        <ele>342.6</ele>
        <time>2020-05-24T10:17:12Z</time>
      </trkpt>
      <trkpt lat="40.7720510" lon="-8.1555110">
        <ele>342.8</ele>
        <time>2020-05-24T10:17:14Z</time>
      </trkpt>
      <trkpt lat="40.7719780" lon="-8.1552820">
        <ele>343.4</ele>
        <time>2020-05-24T10:17:20Z</time>
      </trkpt>
      <trkpt lat="40.7719460" lon="-8.1551700">
        <ele>344.0</ele>
        <time>2020-05-24T10:17:23Z</time>
      </trkpt>
      <trkpt lat="40.7718840" lon="-8.1549430">
        <ele>344.8</ele>
        <time>2020-05-24T10:17:29Z</time>
      </trkpt>
      <trkpt lat="40.7718780" lon="-8.1549050">
        <ele>345.0</ele>
        <time>2020-05-24T10:17:30Z</time>
      </trkpt>
      <trkpt lat="40.7718050" lon="-8.1546460">
        <ele>345.6</ele>
        <time>2020-05-24T10:17:37Z</time>
      </trkpt>
      <trkpt lat="40.7717680" lon="-8.1545050">
        <ele>346.2</ele>
        <time>2020-05-24T10:17:41Z</time>
      </trkpt>
      <trkpt lat="40.7717120" lon="-8.1542580">
        <ele>346.8</ele>
        <time>2020-05-24T10:17:48Z</time>
      </trkpt>
      <trkpt lat="40.7716930" lon="-8.1541900">
        <ele>346.8</ele>
        <time>2020-05-24T10:17:50Z</time>
      </trkpt>
      <trkpt lat="40.7716770" lon="-8.1541230">
        <ele>347.2</ele>
        <time>2020-05-24T10:17:52Z</time>
      </trkpt>
      <trkpt lat="40.7716290" lon="-8.1539200">
        <ele>348.4</ele>
        <time>2020-05-24T10:17:58Z</time>
      </trkpt>
      <trkpt lat="40.7715560" lon="-8.1537160">
        <ele>349.2</ele>
        <time>2020-05-24T10:18:04Z</time>
      </trkpt>
      <trkpt lat="40.7715430" lon="-8.1536820">
        <ele>349.4</ele>
        <time>2020-05-24T10:18:05Z</time>
      </trkpt>
      <trkpt lat="40.7715270" lon="-8.1536130">
        <ele>349.6</ele>
        <time>2020-05-24T10:18:07Z</time>
      </trkpt>
      <trkpt lat="40.7714860" lon="-8.1534450">
        <ele>350.0</ele>
        <time>2020-05-24T10:18:12Z</time>
      </trkpt>
      <trkpt lat="40.7714410" lon="-8.1533060">
        <ele>350.4</ele>
        <time>2020-05-24T10:18:16Z</time>
      </trkpt>
      <trkpt lat="40.7713730" lon="-8.1530590">
        <ele>350.2</ele>
        <time>2020-05-24T10:18:23Z</time>
      </trkpt>
      <trkpt lat="40.7713560" lon="-8.1529490">
        <ele>350.0</ele>
        <time>2020-05-24T10:18:26Z</time>
      </trkpt>
      <trkpt lat="40.7713430" lon="-8.1528720">
        <ele>350.0</ele>
        <time>2020-05-24T10:18:28Z</time>
      </trkpt>
      <trkpt lat="40.7713370" lon="-8.1528340">
        <ele>350.0</ele>
        <time>2020-05-24T10:18:29Z</time>
      </trkpt>
      <trkpt lat="40.7713330" lon="-8.1527180">
        <ele>350.0</ele>
        <time>2020-05-24T10:18:32Z</time>
      </trkpt>
      <trkpt lat="40.7713730" lon="-8.1524610">
        <ele>350.2</ele>
        <time>2020-05-24T10:18:39Z</time>
      </trkpt>
      <trkpt lat="40.7714260" lon="-8.1522020">
        <ele>350.2</ele>
        <time>2020-05-24T10:18:46Z</time>
      </trkpt>
      <trkpt lat="40.7714530" lon="-8.1520880">
        <ele>349.6</ele>
        <time>2020-05-24T10:18:49Z</time>
      </trkpt>
      <trkpt lat="40.7715250" lon="-8.1518590">
        <ele>349.4</ele>
        <time>2020-05-24T10:18:55Z</time>
      </trkpt>
      <trkpt lat="40.7715920" lon="-8.1516370">
        <ele>349.2</ele>
        <time>2020-05-24T10:19:01Z</time>
      </trkpt>
      <trkpt lat="40.7716690" lon="-8.1514180">
        <ele>349.6</ele>
        <time>2020-05-24T10:19:07Z</time>
      </trkpt>
      <trkpt lat="40.7717190" lon="-8.1511830">
        <ele>349.6</ele>
        <time>2020-05-24T10:19:13Z</time>
      </trkpt>
      <trkpt lat="40.7717350" lon="-8.1511020">
        <ele>349.4</ele>
        <time>2020-05-24T10:19:15Z</time>
      </trkpt>
      <trkpt lat="40.7717550" lon="-8.1510220">
        <ele>349.4</ele>
        <time>2020-05-24T10:19:17Z</time>
      </trkpt>
      <trkpt lat="40.7717870" lon="-8.1509030">
        <ele>349.2</ele>
        <time>2020-05-24T10:19:20Z</time>
      </trkpt>
      <trkpt lat="40.7718440" lon="-8.1506610">
        <ele>348.8</ele>
        <time>2020-05-24T10:19:26Z</time>
      </trkpt>
      <trkpt lat="40.7718840" lon="-8.1504990">
        <ele>348.8</ele>
        <time>2020-05-24T10:19:30Z</time>
      </trkpt>
      <trkpt lat="40.7719430" lon="-8.1502490">
        <ele>348.6</ele>
        <time>2020-05-24T10:19:36Z</time>
      </trkpt>
      <trkpt lat="40.7719590" lon="-8.1500810">
        <ele>348.4</ele>
        <time>2020-05-24T10:19:40Z</time>
      </trkpt>
      <trkpt lat="40.7719550" lon="-8.1500380">
        <ele>348.4</ele>
        <time>2020-05-24T10:19:41Z</time>
      </trkpt>
      <trkpt lat="40.7719570" lon="-8.1499510">
        <ele>348.2</ele>
        <time>2020-05-24T10:19:43Z</time>
      </trkpt>
      <trkpt lat="40.7719760" lon="-8.1496960">
        <ele>347.4</ele>
        <time>2020-05-24T10:19:49Z</time>
      </trkpt>
      <trkpt lat="40.7719790" lon="-8.1496520">
        <ele>347.0</ele>
        <time>2020-05-24T10:19:50Z</time>
      </trkpt>
      <trkpt lat="40.7719840" lon="-8.1495660">
        <ele>346.6</ele>
        <time>2020-05-24T10:19:52Z</time>
      </trkpt>
      <trkpt lat="40.7719900" lon="-8.1494840">
        <ele>346.4</ele>
        <time>2020-05-24T10:19:54Z</time>
      </trkpt>
      <trkpt lat="40.7720240" lon="-8.1492150">
        <ele>346.0</ele>
        <time>2020-05-24T10:20:01Z</time>
      </trkpt>
      <trkpt lat="40.7720280" lon="-8.1491790">
        <ele>346.0</ele>
        <time>2020-05-24T10:20:02Z</time>
      </trkpt>
      <trkpt lat="40.7720390" lon="-8.1491020">
        <ele>346.0</ele>
        <time>2020-05-24T10:20:04Z</time>
      </trkpt>
      <trkpt lat="40.7720600" lon="-8.1488360">
        <ele>346.6</ele>
        <time>2020-05-24T10:20:11Z</time>
      </trkpt>
      <trkpt lat="40.7720660" lon="-8.1486830">
        <ele>347.0</ele>
        <time>2020-05-24T10:20:15Z</time>
      </trkpt>
      <trkpt lat="40.7720710" lon="-8.1484520">
        <ele>348.0</ele>
        <time>2020-05-24T10:20:21Z</time>
      </trkpt>
      <trkpt lat="40.7720780" lon="-8.1483370">
        <ele>348.4</ele>
        <time>2020-05-24T10:20:24Z</time>
      </trkpt>
      <trkpt lat="40.7721040" lon="-8.1480690">
        <ele>349.0</ele>
        <time>2020-05-24T10:20:31Z</time>
      </trkpt>
      <trkpt lat="40.7721090" lon="-8.1479490">
        <ele>349.2</ele>
        <time>2020-05-24T10:20:34Z</time>
      </trkpt>
      <trkpt lat="40.7721630" lon="-8.1476920">
        <ele>350.4</ele>
        <time>2020-05-24T10:20:41Z</time>
      </trkpt>
      <trkpt lat="40.7722700" lon="-8.1474750">
        <ele>351.4</ele>
        <time>2020-05-24T10:20:48Z</time>
      </trkpt>
      <trkpt lat="40.7723880" lon="-8.1473540">
        <ele>352.2</ele>
        <time>2020-05-24T10:20:53Z</time>
      </trkpt>
      <trkpt lat="40.7724390" lon="-8.1473110">
        <ele>352.6</ele>
        <time>2020-05-24T10:20:55Z</time>
      </trkpt>
      <trkpt lat="40.7724910" lon="-8.1472670">
        <ele>352.8</ele>
        <time>2020-05-24T10:20:57Z</time>
      </trkpt>
      <trkpt lat="40.7726530" lon="-8.1471160">
        <ele>353.4</ele>
        <time>2020-05-24T10:21:04Z</time>
      </trkpt>
      <trkpt lat="40.7726740" lon="-8.1470900">
        <ele>353.6</ele>
        <time>2020-05-24T10:21:05Z</time>
      </trkpt>
      <trkpt lat="40.7727870" lon="-8.1468610">
        <ele>354.0</ele>
        <time>2020-05-24T10:21:12Z</time>
      </trkpt>
      <trkpt lat="40.7728290" lon="-8.1467900">
        <ele>353.8</ele>
        <time>2020-05-24T10:21:14Z</time>
      </trkpt>
      <trkpt lat="40.7728480" lon="-8.1467560">
        <ele>353.8</ele>
        <time>2020-05-24T10:21:15Z</time>
      </trkpt>
      <trkpt lat="40.7728730" lon="-8.1466780">
        <ele>354.0</ele>
        <time>2020-05-24T10:21:17Z</time>
      </trkpt>
      <trkpt lat="40.7729270" lon="-8.1465250">
        <ele>354.6</ele>
        <time>2020-05-24T10:21:21Z</time>
      </trkpt>
      <trkpt lat="40.7729950" lon="-8.1462920">
        <ele>354.4</ele>
        <time>2020-05-24T10:21:27Z</time>
      </trkpt>
      <trkpt lat="40.7730470" lon="-8.1461080">
        <ele>354.8</ele>
        <time>2020-05-24T10:21:32Z</time>
      </trkpt>
      <trkpt lat="40.7731180" lon="-8.1458800">
        <ele>355.4</ele>
        <time>2020-05-24T10:21:38Z</time>
      </trkpt>
      <trkpt lat="40.7731310" lon="-8.1456070">
        <ele>355.2</ele>
        <time>2020-05-24T10:21:45Z</time>
      </trkpt>
      <trkpt lat="40.7730610" lon="-8.1453700">
        <ele>355.4</ele>
        <time>2020-05-24T10:21:51Z</time>
      </trkpt>
      <trkpt lat="40.7729950" lon="-8.1452380">
        <ele>356.2</ele>
        <time>2020-05-24T10:21:55Z</time>
      </trkpt>
      <trkpt lat="40.7728860" lon="-8.1451070">
        <ele>357.2</ele>
        <time>2020-05-24T10:22:00Z</time>
      </trkpt>
      <trkpt lat="40.7727530" lon="-8.1450130">
        <ele>357.6</ele>
        <time>2020-05-24T10:22:05Z</time>
      </trkpt>
      <trkpt lat="40.7727080" lon="-8.1449680">
        <ele>357.6</ele>
        <time>2020-05-24T10:22:07Z</time>
      </trkpt>
      <trkpt lat="40.7725300" lon="-8.1448450">
        <ele>358.0</ele>
        <time>2020-05-24T10:22:14Z</time>
      </trkpt>
      <trkpt lat="40.7724830" lon="-8.1448180">
        <ele>358.4</ele>
        <time>2020-05-24T10:22:16Z</time>
      </trkpt>
      <trkpt lat="40.7723190" lon="-8.1447250">
        <ele>359.6</ele>
        <time>2020-05-24T10:22:23Z</time>
      </trkpt>
      <trkpt lat="40.7721450" lon="-8.1446400">
        <ele>360.6</ele>
        <time>2020-05-24T10:22:30Z</time>
      </trkpt>
      <trkpt lat="40.7719830" lon="-8.1445620">
        <ele>361.8</ele>
        <time>2020-05-24T10:22:36Z</time>
      </trkpt>
      <trkpt lat="40.7718230" lon="-8.1444270">
        <ele>362.2</ele>
        <time>2020-05-24T10:22:43Z</time>
      </trkpt>
      <trkpt lat="40.7718350" lon="-8.1443560">
        <ele>362.8</ele>
        <time>2020-05-24T10:22:45Z</time>
      </trkpt>
      <trkpt lat="40.7718740" lon="-8.1442230">
        <ele>363.8</ele>
        <time>2020-05-24T10:22:49Z</time>
      </trkpt>
      <trkpt lat="40.7719270" lon="-8.1441010">
        <ele>364.4</ele>
        <time>2020-05-24T10:22:53Z</time>
      </trkpt>
      <trkpt lat="40.7719370" lon="-8.1440710">
        <ele>365.0</ele>
        <time>2020-05-24T10:22:54Z</time>
      </trkpt>
      <trkpt lat="40.7719740" lon="-8.1439830">
        <ele>366.6</ele>
        <time>2020-05-24T10:22:57Z</time>
      </trkpt>
      <trkpt lat="40.7720000" lon="-8.1439200">
        <ele>367.6</ele>
        <time>2020-05-24T10:22:59Z</time>
      </trkpt>
      <trkpt lat="40.7720440" lon="-8.1437010">
        <ele>368.6</ele>
        <time>2020-05-24T10:23:05Z</time>
      </trkpt>
      <trkpt lat="40.7720570" lon="-8.1435940">
        <ele>369.2</ele>
        <time>2020-05-24T10:23:08Z</time>
      </trkpt>
      <trkpt lat="40.7720630" lon="-8.1435210">
        <ele>369.6</ele>
        <time>2020-05-24T10:23:10Z</time>
      </trkpt>
      <trkpt lat="40.7720680" lon="-8.1433320">
        <ele>370.8</ele>
        <time>2020-05-24T10:23:15Z</time>
      </trkpt>
      <trkpt lat="40.7721230" lon="-8.1430720">
        <ele>371.8</ele>
        <time>2020-05-24T10:23:22Z</time>
      </trkpt>
      <trkpt lat="40.7721480" lon="-8.1428210">
        <ele>372.4</ele>
        <time>2020-05-24T10:23:29Z</time>
      </trkpt>
      <trkpt lat="40.7722280" lon="-8.1426100">
        <ele>372.8</ele>
        <time>2020-05-24T10:23:35Z</time>
      </trkpt>
      <trkpt lat="40.7722580" lon="-8.1424200">
        <ele>374.2</ele>
        <time>2020-05-24T10:23:42Z</time>
      </trkpt>
      <trkpt lat="40.7722980" lon="-8.1422060">
        <ele>375.2</ele>
        <time>2020-05-24T10:23:49Z</time>
      </trkpt>
      <trkpt lat="40.7723740" lon="-8.1420480">
        <ele>375.6</ele>
        <time>2020-05-24T10:23:54Z</time>
      </trkpt>
    </trkseg>
  </trk>
</gpx>
